<?xml version="1.0" encoding="UTF-8" standalone="no" ?>
<gpx xmlns="http://www.topografix.com/GPX/1/1" xmlns:xsi="http://www.w3.org/2001/XMLSchema-instance" xsi:schemaLocation="http://www.topografix.com/GPX/1/1 http://www.topografix.com/GPX/1/1/gpx.xsd" version="1.1" creator="VisuGPX - https://www.visugpx.com">
  <metadata>
    <name>Famechon_14km</name>
    <desc><![CDATA[Walkmeter Randonnée 30 mars 2014 09:07:42]]></desc>
  </metadata>
  <trk>
    <name><![CDATA[ch en s_Famechon]]></name>
    <trkseg>
      <trkpt lat="49.76699" lon="2.04259">
        <ele>100</ele>
        <time>2014-03-30T07:07:42Z</time>
      </trkpt>
      <trkpt lat="49.76703" lon="2.04253">
        <ele>100.1</ele>
        <time>2014-03-30T07:07:44Z</time>
      </trkpt>
      <trkpt lat="49.767" lon="2.04232">
        <ele>104.4</ele>
        <time>2014-03-30T07:07:52Z</time>
      </trkpt>
      <trkpt lat="49.76698" lon="2.04211">
        <ele>110</ele>
        <time>2014-03-30T07:08:03Z</time>
      </trkpt>
      <trkpt lat="49.76698" lon="2.04189">
        <ele>117.5</ele>
        <time>2014-03-30T07:08:18Z</time>
      </trkpt>
      <trkpt lat="49.76693" lon="2.04167">
        <ele>118</ele>
        <time>2014-03-30T07:08:29Z</time>
      </trkpt>
      <trkpt lat="49.76688" lon="2.04147">
        <ele>118</ele>
        <time>2014-03-30T07:08:39Z</time>
      </trkpt>
      <trkpt lat="49.7668" lon="2.04131">
        <ele>118.5</ele>
        <time>2014-03-30T07:08:48Z</time>
      </trkpt>
      <trkpt lat="49.76681" lon="2.04109">
        <ele>120.2</ele>
        <time>2014-03-30T07:08:55Z</time>
      </trkpt>
      <trkpt lat="49.76682" lon="2.04087">
        <ele>122.1</ele>
        <time>2014-03-30T07:09:03Z</time>
      </trkpt>
      <trkpt lat="49.76684" lon="2.04065">
        <ele>122.4</ele>
        <time>2014-03-30T07:09:16Z</time>
      </trkpt>
      <trkpt lat="49.76682" lon="2.04042">
        <ele>117</ele>
        <time>2014-03-30T07:09:30Z</time>
      </trkpt>
      <trkpt lat="49.76691" lon="2.04025">
        <ele>117.2</ele>
        <time>2014-03-30T07:09:38Z</time>
      </trkpt>
      <trkpt lat="49.76704" lon="2.04014">
        <ele>117.5</ele>
        <time>2014-03-30T07:09:46Z</time>
      </trkpt>
      <trkpt lat="49.76713" lon="2.04004">
        <ele>117.9</ele>
        <time>2014-03-30T07:10:03Z</time>
      </trkpt>
      <trkpt lat="49.76739" lon="2.03982">
        <ele>118</ele>
        <time>2014-03-30T07:10:07Z</time>
      </trkpt>
      <trkpt lat="49.7675" lon="2.03969">
        <ele>118.5</ele>
        <time>2014-03-30T07:10:25Z</time>
      </trkpt>
      <trkpt lat="49.76753" lon="2.03969">
        <ele>118.7</ele>
        <time>2014-03-30T07:10:30Z</time>
      </trkpt>
      <trkpt lat="49.76746" lon="2.03949">
        <ele>119</ele>
        <time>2014-03-30T07:10:41Z</time>
      </trkpt>
      <trkpt lat="49.76742" lon="2.03929">
        <ele>119.2</ele>
        <time>2014-03-30T07:10:48Z</time>
      </trkpt>
      <trkpt lat="49.7674" lon="2.03907">
        <ele>119.4</ele>
        <time>2014-03-30T07:10:57Z</time>
      </trkpt>
      <trkpt lat="49.76738" lon="2.03885">
        <ele>119.6</ele>
        <time>2014-03-30T07:11:05Z</time>
      </trkpt>
      <trkpt lat="49.76739" lon="2.03866">
        <ele>119.9</ele>
        <time>2014-03-30T07:11:13Z</time>
      </trkpt>
      <trkpt lat="49.76742" lon="2.03844">
        <ele>121.1</ele>
        <time>2014-03-30T07:11:34Z</time>
      </trkpt>
      <trkpt lat="49.76744" lon="2.03822">
        <ele>121.9</ele>
        <time>2014-03-30T07:11:46Z</time>
      </trkpt>
      <trkpt lat="49.76746" lon="2.038">
        <ele>122.5</ele>
        <time>2014-03-30T07:11:56Z</time>
      </trkpt>
      <trkpt lat="49.76747" lon="2.03778">
        <ele>122.9</ele>
        <time>2014-03-30T07:12:04Z</time>
      </trkpt>
      <trkpt lat="49.76747" lon="2.03757">
        <ele>122.2</ele>
        <time>2014-03-30T07:12:14Z</time>
      </trkpt>
      <trkpt lat="49.7674" lon="2.03735">
        <ele>121.5</ele>
        <time>2014-03-30T07:12:24Z</time>
      </trkpt>
      <trkpt lat="49.7674" lon="2.03714">
        <ele>120.5</ele>
        <time>2014-03-30T07:12:39Z</time>
      </trkpt>
      <trkpt lat="49.76742" lon="2.03693">
        <ele>121</ele>
        <time>2014-03-30T07:12:50Z</time>
      </trkpt>
      <trkpt lat="49.76741" lon="2.03671">
        <ele>123</ele>
        <time>2014-03-30T07:12:58Z</time>
      </trkpt>
      <trkpt lat="49.76744" lon="2.0365">
        <ele>126</ele>
        <time>2014-03-30T07:13:10Z</time>
      </trkpt>
      <trkpt lat="49.7675" lon="2.0363">
        <ele>125.6</ele>
        <time>2014-03-30T07:13:20Z</time>
      </trkpt>
      <trkpt lat="49.76757" lon="2.0361">
        <ele>125.3</ele>
        <time>2014-03-30T07:13:28Z</time>
      </trkpt>
      <trkpt lat="49.76765" lon="2.03593">
        <ele>124.9</ele>
        <time>2014-03-30T07:13:39Z</time>
      </trkpt>
      <trkpt lat="49.7677" lon="2.03571">
        <ele>124.6</ele>
        <time>2014-03-30T07:13:47Z</time>
      </trkpt>
      <trkpt lat="49.76777" lon="2.0355">
        <ele>124.4</ele>
        <time>2014-03-30T07:13:55Z</time>
      </trkpt>
      <trkpt lat="49.76787" lon="2.03536">
        <ele>124</ele>
        <time>2014-03-30T07:14:05Z</time>
      </trkpt>
      <trkpt lat="49.768" lon="2.03525">
        <ele>123.6</ele>
        <time>2014-03-30T07:14:16Z</time>
      </trkpt>
      <trkpt lat="49.76804" lon="2.03505">
        <ele>123.3</ele>
        <time>2014-03-30T07:14:25Z</time>
      </trkpt>
      <trkpt lat="49.76818" lon="2.03496">
        <ele>123.4</ele>
        <time>2014-03-30T07:14:36Z</time>
      </trkpt>
      <trkpt lat="49.76823" lon="2.03474">
        <ele>124.9</ele>
        <time>2014-03-30T07:14:46Z</time>
      </trkpt>
      <trkpt lat="49.76828" lon="2.03461">
        <ele>125.9</ele>
        <time>2014-03-30T07:14:53Z</time>
      </trkpt>
      <trkpt lat="49.76843" lon="2.03447">
        <ele>127.6</ele>
        <time>2014-03-30T07:15:04Z</time>
      </trkpt>
      <trkpt lat="49.76846" lon="2.03426">
        <ele>129.6</ele>
        <time>2014-03-30T07:15:18Z</time>
      </trkpt>
      <trkpt lat="49.76858" lon="2.03416">
        <ele>131.2</ele>
        <time>2014-03-30T07:15:29Z</time>
      </trkpt>
      <trkpt lat="49.76863" lon="2.03395">
        <ele>132.3</ele>
        <time>2014-03-30T07:15:36Z</time>
      </trkpt>
      <trkpt lat="49.76861" lon="2.03371">
        <ele>133.7</ele>
        <time>2014-03-30T07:15:42Z</time>
      </trkpt>
      <trkpt lat="49.76854" lon="2.03352">
        <ele>138.6</ele>
        <time>2014-03-30T07:15:49Z</time>
      </trkpt>
      <trkpt lat="49.76848" lon="2.03332">
        <ele>142.2</ele>
        <time>2014-03-30T07:15:57Z</time>
      </trkpt>
      <trkpt lat="49.76847" lon="2.0331">
        <ele>146.2</ele>
        <time>2014-03-30T07:16:08Z</time>
      </trkpt>
      <trkpt lat="49.76842" lon="2.0329">
        <ele>148.6</ele>
        <time>2014-03-30T07:16:21Z</time>
      </trkpt>
      <trkpt lat="49.76835" lon="2.03272">
        <ele>149</ele>
        <time>2014-03-30T07:16:31Z</time>
      </trkpt>
      <trkpt lat="49.76833" lon="2.03251">
        <ele>150.7</ele>
        <time>2014-03-30T07:16:43Z</time>
      </trkpt>
      <trkpt lat="49.76827" lon="2.03229">
        <ele>151.9</ele>
        <time>2014-03-30T07:16:51Z</time>
      </trkpt>
      <trkpt lat="49.76821" lon="2.03208">
        <ele>154.5</ele>
        <time>2014-03-30T07:16:57Z</time>
      </trkpt>
      <trkpt lat="49.76818" lon="2.03186">
        <ele>157.3</ele>
        <time>2014-03-30T07:17:07Z</time>
      </trkpt>
      <trkpt lat="49.76813" lon="2.03166">
        <ele>160.1</ele>
        <time>2014-03-30T07:17:20Z</time>
      </trkpt>
      <trkpt lat="49.76804" lon="2.03149">
        <ele>161</ele>
        <time>2014-03-30T07:17:30Z</time>
      </trkpt>
      <trkpt lat="49.76803" lon="2.03128">
        <ele>161</ele>
        <time>2014-03-30T07:17:39Z</time>
      </trkpt>
      <trkpt lat="49.76798" lon="2.03106">
        <ele>161</ele>
        <time>2014-03-30T07:17:48Z</time>
      </trkpt>
      <trkpt lat="49.76792" lon="2.03087">
        <ele>161.2</ele>
        <time>2014-03-30T07:17:57Z</time>
      </trkpt>
      <trkpt lat="49.7679" lon="2.03065">
        <ele>161.9</ele>
        <time>2014-03-30T07:18:11Z</time>
      </trkpt>
      <trkpt lat="49.76789" lon="2.03043">
        <ele>162.5</ele>
        <time>2014-03-30T07:18:22Z</time>
      </trkpt>
      <trkpt lat="49.76784" lon="2.03024">
        <ele>162.9</ele>
        <time>2014-03-30T07:18:30Z</time>
      </trkpt>
      <trkpt lat="49.76785" lon="2.03001">
        <ele>163.4</ele>
        <time>2014-03-30T07:18:39Z</time>
      </trkpt>
      <trkpt lat="49.76787" lon="2.02979">
        <ele>163.9</ele>
        <time>2014-03-30T07:18:50Z</time>
      </trkpt>
      <trkpt lat="49.76786" lon="2.02956">
        <ele>161.9</ele>
        <time>2014-03-30T07:19:03Z</time>
      </trkpt>
      <trkpt lat="49.76781" lon="2.02936">
        <ele>160.5</ele>
        <time>2014-03-30T07:19:11Z</time>
      </trkpt>
      <trkpt lat="49.7678" lon="2.02915">
        <ele>158.8</ele>
        <time>2014-03-30T07:19:20Z</time>
      </trkpt>
      <trkpt lat="49.76776" lon="2.02894">
        <ele>158.3</ele>
        <time>2014-03-30T07:19:29Z</time>
      </trkpt>
      <trkpt lat="49.76777" lon="2.02871">
        <ele>159</ele>
        <time>2014-03-30T07:19:39Z</time>
      </trkpt>
      <trkpt lat="49.76777" lon="2.02849">
        <ele>159.7</ele>
        <time>2014-03-30T07:19:49Z</time>
      </trkpt>
      <trkpt lat="49.76776" lon="2.02828">
        <ele>160.4</ele>
        <time>2014-03-30T07:19:59Z</time>
      </trkpt>
      <trkpt lat="49.76775" lon="2.02807">
        <ele>161.2</ele>
        <time>2014-03-30T07:20:10Z</time>
      </trkpt>
      <trkpt lat="49.76773" lon="2.02785">
        <ele>162.4</ele>
        <time>2014-03-30T07:20:20Z</time>
      </trkpt>
      <trkpt lat="49.76772" lon="2.02763">
        <ele>163.5</ele>
        <time>2014-03-30T07:20:30Z</time>
      </trkpt>
      <trkpt lat="49.76772" lon="2.02741">
        <ele>166</ele>
        <time>2014-03-30T07:20:40Z</time>
      </trkpt>
      <trkpt lat="49.7677" lon="2.0272">
        <ele>164.8</ele>
        <time>2014-03-30T07:20:50Z</time>
      </trkpt>
      <trkpt lat="49.7677" lon="2.02698">
        <ele>164.2</ele>
        <time>2014-03-30T07:21:01Z</time>
      </trkpt>
      <trkpt lat="49.7677" lon="2.02676">
        <ele>164.6</ele>
        <time>2014-03-30T07:21:10Z</time>
      </trkpt>
      <trkpt lat="49.76771" lon="2.02655">
        <ele>165.1</ele>
        <time>2014-03-30T07:21:20Z</time>
      </trkpt>
      <trkpt lat="49.7677" lon="2.02634">
        <ele>165.5</ele>
        <time>2014-03-30T07:21:30Z</time>
      </trkpt>
      <trkpt lat="49.76769" lon="2.02611">
        <ele>166</ele>
        <time>2014-03-30T07:21:40Z</time>
      </trkpt>
      <trkpt lat="49.76768" lon="2.0259">
        <ele>166.4</ele>
        <time>2014-03-30T07:21:49Z</time>
      </trkpt>
      <trkpt lat="49.76768" lon="2.02568">
        <ele>166.9</ele>
        <time>2014-03-30T07:22:01Z</time>
      </trkpt>
      <trkpt lat="49.76767" lon="2.02545">
        <ele>167.4</ele>
        <time>2014-03-30T07:22:11Z</time>
      </trkpt>
      <trkpt lat="49.76767" lon="2.02524">
        <ele>167.9</ele>
        <time>2014-03-30T07:22:21Z</time>
      </trkpt>
      <trkpt lat="49.76768" lon="2.02504">
        <ele>167.6</ele>
        <time>2014-03-30T07:22:34Z</time>
      </trkpt>
      <trkpt lat="49.76767" lon="2.02482">
        <ele>167.3</ele>
        <time>2014-03-30T07:22:44Z</time>
      </trkpt>
      <trkpt lat="49.76773" lon="2.02461">
        <ele>166.9</ele>
        <time>2014-03-30T07:22:54Z</time>
      </trkpt>
      <trkpt lat="49.76777" lon="2.02439">
        <ele>166.6</ele>
        <time>2014-03-30T07:23:03Z</time>
      </trkpt>
      <trkpt lat="49.76778" lon="2.02416">
        <ele>166.3</ele>
        <time>2014-03-30T07:23:12Z</time>
      </trkpt>
      <trkpt lat="49.76776" lon="2.02394">
        <ele>166</ele>
        <time>2014-03-30T07:23:21Z</time>
      </trkpt>
      <trkpt lat="49.76772" lon="2.02373">
        <ele>165.7</ele>
        <time>2014-03-30T07:23:29Z</time>
      </trkpt>
      <trkpt lat="49.76773" lon="2.02351">
        <ele>165.2</ele>
        <time>2014-03-30T07:23:41Z</time>
      </trkpt>
      <trkpt lat="49.76774" lon="2.02329">
        <ele>164.2</ele>
        <time>2014-03-30T07:23:52Z</time>
      </trkpt>
      <trkpt lat="49.76777" lon="2.02307">
        <ele>162</ele>
        <time>2014-03-30T07:24:04Z</time>
      </trkpt>
      <trkpt lat="49.76778" lon="2.02286">
        <ele>159.3</ele>
        <time>2014-03-30T07:24:14Z</time>
      </trkpt>
      <trkpt lat="49.76786" lon="2.02267">
        <ele>160</ele>
        <time>2014-03-30T07:24:24Z</time>
      </trkpt>
      <trkpt lat="49.76786" lon="2.02246">
        <ele>160.1</ele>
        <time>2014-03-30T07:24:34Z</time>
      </trkpt>
      <trkpt lat="49.76786" lon="2.02224">
        <ele>161</ele>
        <time>2014-03-30T07:24:44Z</time>
      </trkpt>
      <trkpt lat="49.76789" lon="2.02201">
        <ele>161.9</ele>
        <time>2014-03-30T07:24:54Z</time>
      </trkpt>
      <trkpt lat="49.76792" lon="2.02179">
        <ele>162.8</ele>
        <time>2014-03-30T07:25:04Z</time>
      </trkpt>
      <trkpt lat="49.76793" lon="2.02157">
        <ele>163.6</ele>
        <time>2014-03-30T07:25:18Z</time>
      </trkpt>
      <trkpt lat="49.76792" lon="2.02132">
        <ele>164</ele>
        <time>2014-03-30T07:25:27Z</time>
      </trkpt>
      <trkpt lat="49.76796" lon="2.02105">
        <ele>164.5</ele>
        <time>2014-03-30T07:25:36Z</time>
      </trkpt>
      <trkpt lat="49.76802" lon="2.02081">
        <ele>165</ele>
        <time>2014-03-30T07:25:48Z</time>
      </trkpt>
      <trkpt lat="49.76802" lon="2.0206">
        <ele>165.9</ele>
        <time>2014-03-30T07:26:06Z</time>
      </trkpt>
      <trkpt lat="49.76802" lon="2.02038">
        <ele>166.7</ele>
        <time>2014-03-30T07:26:14Z</time>
      </trkpt>
      <trkpt lat="49.76802" lon="2.02016">
        <ele>167.3</ele>
        <time>2014-03-30T07:26:20Z</time>
      </trkpt>
      <trkpt lat="49.76803" lon="2.01994">
        <ele>168.4</ele>
        <time>2014-03-30T07:26:30Z</time>
      </trkpt>
      <trkpt lat="49.76804" lon="2.01973">
        <ele>170</ele>
        <time>2014-03-30T07:26:51Z</time>
      </trkpt>
      <trkpt lat="49.76785" lon="2.01942">
        <ele>168.9</ele>
        <time>2014-03-30T07:28:21Z</time>
      </trkpt>
      <trkpt lat="49.76785" lon="2.01942">
        <ele>168.9</ele>
        <time>2014-03-30T07:30:40Z</time>
      </trkpt>
      <trkpt lat="49.76776" lon="2.01933">
        <ele>167.8</ele>
        <time>2014-03-30T07:30:44Z</time>
      </trkpt>
      <trkpt lat="49.76763" lon="2.01924">
        <ele>168.2</ele>
        <time>2014-03-30T07:30:53Z</time>
      </trkpt>
      <trkpt lat="49.76752" lon="2.01908">
        <ele>168.5</ele>
        <time>2014-03-30T07:31:02Z</time>
      </trkpt>
      <trkpt lat="49.76749" lon="2.01901">
        <ele>168.7</ele>
        <time>2014-03-30T07:31:06Z</time>
      </trkpt>
      <trkpt lat="49.76752" lon="2.01879">
        <ele>169</ele>
        <time>2014-03-30T07:31:14Z</time>
      </trkpt>
      <trkpt lat="49.76758" lon="2.0186">
        <ele>169.3</ele>
        <time>2014-03-30T07:31:22Z</time>
      </trkpt>
      <trkpt lat="49.76762" lon="2.01838">
        <ele>169.6</ele>
        <time>2014-03-30T07:31:31Z</time>
      </trkpt>
      <trkpt lat="49.7676" lon="2.01814">
        <ele>169.7</ele>
        <time>2014-03-30T07:31:43Z</time>
      </trkpt>
      <trkpt lat="49.76758" lon="2.01793">
        <ele>167.9</ele>
        <time>2014-03-30T07:31:53Z</time>
      </trkpt>
      <trkpt lat="49.76758" lon="2.01769">
        <ele>166.4</ele>
        <time>2014-03-30T07:32:02Z</time>
      </trkpt>
      <trkpt lat="49.76756" lon="2.01748">
        <ele>162</ele>
        <time>2014-03-30T07:32:16Z</time>
      </trkpt>
      <trkpt lat="49.76755" lon="2.01726">
        <ele>155.4</ele>
        <time>2014-03-30T07:32:27Z</time>
      </trkpt>
      <trkpt lat="49.76751" lon="2.01704">
        <ele>157.9</ele>
        <time>2014-03-30T07:32:36Z</time>
      </trkpt>
      <trkpt lat="49.76751" lon="2.01682">
        <ele>156.5</ele>
        <time>2014-03-30T07:32:46Z</time>
      </trkpt>
      <trkpt lat="49.76753" lon="2.01661">
        <ele>152</ele>
        <time>2014-03-30T07:32:57Z</time>
      </trkpt>
      <trkpt lat="49.76753" lon="2.0164">
        <ele>152</ele>
        <time>2014-03-30T07:33:10Z</time>
      </trkpt>
      <trkpt lat="49.76752" lon="2.01619">
        <ele>150.8</ele>
        <time>2014-03-30T07:33:26Z</time>
      </trkpt>
      <trkpt lat="49.76755" lon="2.01599">
        <ele>150.1</ele>
        <time>2014-03-30T07:33:37Z</time>
      </trkpt>
      <trkpt lat="49.76759" lon="2.01579">
        <ele>150</ele>
        <time>2014-03-30T07:33:45Z</time>
      </trkpt>
      <trkpt lat="49.76758" lon="2.01557">
        <ele>149.9</ele>
        <time>2014-03-30T07:33:54Z</time>
      </trkpt>
      <trkpt lat="49.76761" lon="2.01536">
        <ele>149.7</ele>
        <time>2014-03-30T07:34:01Z</time>
      </trkpt>
      <trkpt lat="49.76767" lon="2.01516">
        <ele>149.3</ele>
        <time>2014-03-30T07:34:17Z</time>
      </trkpt>
      <trkpt lat="49.76774" lon="2.01497">
        <ele>149</ele>
        <time>2014-03-30T07:34:31Z</time>
      </trkpt>
      <trkpt lat="49.76784" lon="2.01483">
        <ele>148.8</ele>
        <time>2014-03-30T07:34:38Z</time>
      </trkpt>
      <trkpt lat="49.76791" lon="2.01464">
        <ele>148.5</ele>
        <time>2014-03-30T07:34:50Z</time>
      </trkpt>
      <trkpt lat="49.76801" lon="2.01447">
        <ele>148.3</ele>
        <time>2014-03-30T07:34:57Z</time>
      </trkpt>
      <trkpt lat="49.76807" lon="2.01427">
        <ele>148.1</ele>
        <time>2014-03-30T07:35:05Z</time>
      </trkpt>
      <trkpt lat="49.7681" lon="2.01407">
        <ele>147.9</ele>
        <time>2014-03-30T07:35:13Z</time>
      </trkpt>
      <trkpt lat="49.76811" lon="2.01386">
        <ele>147.7</ele>
        <time>2014-03-30T07:35:21Z</time>
      </trkpt>
      <trkpt lat="49.76819" lon="2.01367">
        <ele>147.5</ele>
        <time>2014-03-30T07:35:32Z</time>
      </trkpt>
      <trkpt lat="49.7683" lon="2.01353">
        <ele>147.2</ele>
        <time>2014-03-30T07:35:41Z</time>
      </trkpt>
      <trkpt lat="49.7684" lon="2.01337">
        <ele>146.6</ele>
        <time>2014-03-30T07:35:53Z</time>
      </trkpt>
      <trkpt lat="49.76854" lon="2.01333">
        <ele>142.6</ele>
        <time>2014-03-30T07:36:10Z</time>
      </trkpt>
      <trkpt lat="49.76869" lon="2.01335">
        <ele>140.7</ele>
        <time>2014-03-30T07:36:19Z</time>
      </trkpt>
      <trkpt lat="49.76878" lon="2.01318">
        <ele>140.4</ele>
        <time>2014-03-30T07:36:26Z</time>
      </trkpt>
      <trkpt lat="49.76889" lon="2.01305">
        <ele>140.1</ele>
        <time>2014-03-30T07:36:33Z</time>
      </trkpt>
      <trkpt lat="49.76896" lon="2.01287">
        <ele>139.6</ele>
        <time>2014-03-30T07:36:43Z</time>
      </trkpt>
      <trkpt lat="49.76907" lon="2.01275">
        <ele>139.1</ele>
        <time>2014-03-30T07:36:54Z</time>
      </trkpt>
      <trkpt lat="49.76915" lon="2.01257">
        <ele>137.2</ele>
        <time>2014-03-30T07:37:06Z</time>
      </trkpt>
      <trkpt lat="49.76918" lon="2.01234">
        <ele>137.5</ele>
        <time>2014-03-30T07:37:17Z</time>
      </trkpt>
      <trkpt lat="49.76924" lon="2.01214">
        <ele>141.4</ele>
        <time>2014-03-30T07:37:26Z</time>
      </trkpt>
      <trkpt lat="49.76933" lon="2.01195">
        <ele>143.6</ele>
        <time>2014-03-30T07:37:38Z</time>
      </trkpt>
      <trkpt lat="49.76942" lon="2.01179">
        <ele>143.2</ele>
        <time>2014-03-30T07:37:50Z</time>
      </trkpt>
      <trkpt lat="49.76949" lon="2.0116">
        <ele>142.5</ele>
        <time>2014-03-30T07:37:59Z</time>
      </trkpt>
      <trkpt lat="49.7696" lon="2.01146">
        <ele>141.5</ele>
        <time>2014-03-30T07:38:12Z</time>
      </trkpt>
      <trkpt lat="49.76972" lon="2.01134">
        <ele>141.3</ele>
        <time>2014-03-30T07:38:24Z</time>
      </trkpt>
      <trkpt lat="49.76982" lon="2.01119">
        <ele>141.7</ele>
        <time>2014-03-30T07:38:34Z</time>
      </trkpt>
      <trkpt lat="49.76991" lon="2.01103">
        <ele>142.2</ele>
        <time>2014-03-30T07:38:46Z</time>
      </trkpt>
      <trkpt lat="49.77002" lon="2.01089">
        <ele>142.7</ele>
        <time>2014-03-30T07:38:59Z</time>
      </trkpt>
      <trkpt lat="49.77013" lon="2.01077">
        <ele>143.4</ele>
        <time>2014-03-30T07:39:14Z</time>
      </trkpt>
      <trkpt lat="49.77005" lon="2.01057">
        <ele>143.8</ele>
        <time>2014-03-30T07:39:24Z</time>
      </trkpt>
      <trkpt lat="49.76993" lon="2.01045">
        <ele>143.7</ele>
        <time>2014-03-30T07:39:33Z</time>
      </trkpt>
      <trkpt lat="49.76983" lon="2.0103">
        <ele>142.9</ele>
        <time>2014-03-30T07:39:43Z</time>
      </trkpt>
      <trkpt lat="49.76973" lon="2.01013">
        <ele>142.2</ele>
        <time>2014-03-30T07:39:53Z</time>
      </trkpt>
      <trkpt lat="49.76975" lon="2.00992">
        <ele>141.2</ele>
        <time>2014-03-30T07:40:06Z</time>
      </trkpt>
      <trkpt lat="49.7698" lon="2.0097">
        <ele>138.5</ele>
        <time>2014-03-30T07:40:17Z</time>
      </trkpt>
      <trkpt lat="49.76985" lon="2.00949">
        <ele>136.1</ele>
        <time>2014-03-30T07:40:26Z</time>
      </trkpt>
      <trkpt lat="49.76984" lon="2.00928">
        <ele>129.1</ele>
        <time>2014-03-30T07:40:41Z</time>
      </trkpt>
      <trkpt lat="49.76977" lon="2.00908">
        <ele>129.7</ele>
        <time>2014-03-30T07:40:51Z</time>
      </trkpt>
      <trkpt lat="49.76969" lon="2.00889">
        <ele>129.9</ele>
        <time>2014-03-30T07:40:57Z</time>
      </trkpt>
      <trkpt lat="49.76963" lon="2.00869">
        <ele>129.1</ele>
        <time>2014-03-30T07:41:03Z</time>
      </trkpt>
      <trkpt lat="49.76953" lon="2.00854">
        <ele>128.1</ele>
        <time>2014-03-30T07:41:11Z</time>
      </trkpt>
      <trkpt lat="49.76945" lon="2.00837">
        <ele>127.1</ele>
        <time>2014-03-30T07:41:19Z</time>
      </trkpt>
      <trkpt lat="49.76935" lon="2.00822">
        <ele>126.5</ele>
        <time>2014-03-30T07:41:28Z</time>
      </trkpt>
      <trkpt lat="49.76923" lon="2.00811">
        <ele>126</ele>
        <time>2014-03-30T07:41:37Z</time>
      </trkpt>
      <trkpt lat="49.76913" lon="2.00793">
        <ele>123.4</ele>
        <time>2014-03-30T07:41:48Z</time>
      </trkpt>
      <trkpt lat="49.76905" lon="2.00776">
        <ele>122.7</ele>
        <time>2014-03-30T07:41:58Z</time>
      </trkpt>
      <trkpt lat="49.76898" lon="2.00757">
        <ele>121.6</ele>
        <time>2014-03-30T07:42:08Z</time>
      </trkpt>
      <trkpt lat="49.76892" lon="2.00738">
        <ele>119.9</ele>
        <time>2014-03-30T07:42:18Z</time>
      </trkpt>
      <trkpt lat="49.76879" lon="2.00727">
        <ele>118.2</ele>
        <time>2014-03-30T07:42:28Z</time>
      </trkpt>
      <trkpt lat="49.76868" lon="2.00715">
        <ele>117.3</ele>
        <time>2014-03-30T07:42:37Z</time>
      </trkpt>
      <trkpt lat="49.76855" lon="2.00709">
        <ele>116.3</ele>
        <time>2014-03-30T07:42:49Z</time>
      </trkpt>
      <trkpt lat="49.76841" lon="2.007">
        <ele>115.2</ele>
        <time>2014-03-30T07:43:02Z</time>
      </trkpt>
      <trkpt lat="49.7683" lon="2.00686">
        <ele>114.7</ele>
        <time>2014-03-30T07:43:11Z</time>
      </trkpt>
      <trkpt lat="49.76822" lon="2.00667">
        <ele>114.3</ele>
        <time>2014-03-30T07:43:19Z</time>
      </trkpt>
      <trkpt lat="49.76816" lon="2.00648">
        <ele>113.6</ele>
        <time>2014-03-30T07:43:30Z</time>
      </trkpt>
      <trkpt lat="49.76806" lon="2.00633">
        <ele>112.6</ele>
        <time>2014-03-30T07:43:41Z</time>
      </trkpt>
      <trkpt lat="49.76796" lon="2.00618">
        <ele>111.9</ele>
        <time>2014-03-30T07:43:49Z</time>
      </trkpt>
      <trkpt lat="49.76785" lon="2.00603">
        <ele>111.1</ele>
        <time>2014-03-30T07:43:58Z</time>
      </trkpt>
      <trkpt lat="49.76784" lon="2.00582">
        <ele>109.7</ele>
        <time>2014-03-30T07:44:12Z</time>
      </trkpt>
      <trkpt lat="49.76776" lon="2.00564">
        <ele>108</ele>
        <time>2014-03-30T07:44:25Z</time>
      </trkpt>
      <trkpt lat="49.76767" lon="2.00548">
        <ele>106.7</ele>
        <time>2014-03-30T07:44:35Z</time>
      </trkpt>
      <trkpt lat="49.76755" lon="2.00535">
        <ele>106</ele>
        <time>2014-03-30T07:44:47Z</time>
      </trkpt>
      <trkpt lat="49.76727" lon="2.00538">
        <ele>101.4</ele>
        <time>2014-03-30T07:45:07Z</time>
      </trkpt>
      <trkpt lat="49.76727" lon="2.00538">
        <ele>101.4</ele>
        <time>2014-03-30T07:48:19Z</time>
      </trkpt>
      <trkpt lat="49.76713" lon="2.00547">
        <ele>96.7</ele>
        <time>2014-03-30T07:48:22Z</time>
      </trkpt>
      <trkpt lat="49.76702" lon="2.00534">
        <ele>95</ele>
        <time>2014-03-30T07:48:37Z</time>
      </trkpt>
      <trkpt lat="49.767" lon="2.00513">
        <ele>94.7</ele>
        <time>2014-03-30T07:48:47Z</time>
      </trkpt>
      <trkpt lat="49.767" lon="2.00491">
        <ele>94.5</ele>
        <time>2014-03-30T07:48:56Z</time>
      </trkpt>
      <trkpt lat="49.767" lon="2.0047">
        <ele>94.2</ele>
        <time>2014-03-30T07:49:07Z</time>
      </trkpt>
      <trkpt lat="49.767" lon="2.00448">
        <ele>93.9</ele>
        <time>2014-03-30T07:49:18Z</time>
      </trkpt>
      <trkpt lat="49.76697" lon="2.00426">
        <ele>93.6</ele>
        <time>2014-03-30T07:49:29Z</time>
      </trkpt>
      <trkpt lat="49.76695" lon="2.00405">
        <ele>93.4</ele>
        <time>2014-03-30T07:49:38Z</time>
      </trkpt>
      <trkpt lat="49.76682" lon="2.00396">
        <ele>93.2</ele>
        <time>2014-03-30T07:49:46Z</time>
      </trkpt>
      <trkpt lat="49.76668" lon="2.00391">
        <ele>93</ele>
        <time>2014-03-30T07:49:54Z</time>
      </trkpt>
      <trkpt lat="49.76654" lon="2.00383">
        <ele>92.8</ele>
        <time>2014-03-30T07:50:02Z</time>
      </trkpt>
      <trkpt lat="49.76643" lon="2.00371">
        <ele>92.6</ele>
        <time>2014-03-30T07:50:10Z</time>
      </trkpt>
      <trkpt lat="49.7663" lon="2.0036">
        <ele>92.3</ele>
        <time>2014-03-30T07:50:20Z</time>
      </trkpt>
      <trkpt lat="49.76617" lon="2.00353">
        <ele>92</ele>
        <time>2014-03-30T07:50:32Z</time>
      </trkpt>
      <trkpt lat="49.76605" lon="2.00344">
        <ele>91.9</ele>
        <time>2014-03-30T07:50:41Z</time>
      </trkpt>
      <trkpt lat="49.7659" lon="2.00334">
        <ele>91.8</ele>
        <time>2014-03-30T07:50:50Z</time>
      </trkpt>
      <trkpt lat="49.76582" lon="2.00315">
        <ele>91.7</ele>
        <time>2014-03-30T07:51:01Z</time>
      </trkpt>
      <trkpt lat="49.76577" lon="2.00295">
        <ele>91.5</ele>
        <time>2014-03-30T07:51:13Z</time>
      </trkpt>
      <trkpt lat="49.76579" lon="2.00272">
        <ele>91.4</ele>
        <time>2014-03-30T07:51:22Z</time>
      </trkpt>
      <trkpt lat="49.76571" lon="2.00254">
        <ele>91.3</ele>
        <time>2014-03-30T07:51:31Z</time>
      </trkpt>
      <trkpt lat="49.76558" lon="2.00255">
        <ele>91.2</ele>
        <time>2014-03-30T07:51:42Z</time>
      </trkpt>
      <trkpt lat="49.76545" lon="2.00267">
        <ele>91.1</ele>
        <time>2014-03-30T07:51:50Z</time>
      </trkpt>
      <trkpt lat="49.76535" lon="2.00282">
        <ele>91</ele>
        <time>2014-03-30T07:51:59Z</time>
      </trkpt>
      <trkpt lat="49.7653" lon="2.00288">
        <ele>91</ele>
        <time>2014-03-30T07:52:03Z</time>
      </trkpt>
      <trkpt lat="49.76533" lon="2.00294">
        <ele>90.9</ele>
        <time>2014-03-30T07:52:09Z</time>
      </trkpt>
      <trkpt lat="49.76523" lon="2.00312">
        <ele>90.8</ele>
        <time>2014-03-30T07:52:18Z</time>
      </trkpt>
      <trkpt lat="49.76514" lon="2.0033">
        <ele>90.6</ele>
        <time>2014-03-30T07:52:32Z</time>
      </trkpt>
      <trkpt lat="49.76505" lon="2.00345">
        <ele>90.5</ele>
        <time>2014-03-30T07:52:38Z</time>
      </trkpt>
      <trkpt lat="49.76495" lon="2.0037">
        <ele>90.4</ele>
        <time>2014-03-30T07:52:48Z</time>
      </trkpt>
      <trkpt lat="49.76491" lon="2.00392">
        <ele>90.3</ele>
        <time>2014-03-30T07:52:59Z</time>
      </trkpt>
      <trkpt lat="49.76477" lon="2.004">
        <ele>90.2</ele>
        <time>2014-03-30T07:53:12Z</time>
      </trkpt>
      <trkpt lat="49.76467" lon="2.00417">
        <ele>90.1</ele>
        <time>2014-03-30T07:53:20Z</time>
      </trkpt>
      <trkpt lat="49.76456" lon="2.00433">
        <ele>89.9</ele>
        <time>2014-03-30T07:53:30Z</time>
      </trkpt>
      <trkpt lat="49.76447" lon="2.00448">
        <ele>89.8</ele>
        <time>2014-03-30T07:53:40Z</time>
      </trkpt>
      <trkpt lat="49.76445" lon="2.00473">
        <ele>89.7</ele>
        <time>2014-03-30T07:53:51Z</time>
      </trkpt>
      <trkpt lat="49.76443" lon="2.00494">
        <ele>89.6</ele>
        <time>2014-03-30T07:54:01Z</time>
      </trkpt>
      <trkpt lat="49.76435" lon="2.00512">
        <ele>89.5</ele>
        <time>2014-03-30T07:54:12Z</time>
      </trkpt>
      <trkpt lat="49.76434" lon="2.00533">
        <ele>89.4</ele>
        <time>2014-03-30T07:54:20Z</time>
      </trkpt>
      <trkpt lat="49.76434" lon="2.00555">
        <ele>89.2</ele>
        <time>2014-03-30T07:54:36Z</time>
      </trkpt>
      <trkpt lat="49.76434" lon="2.00576">
        <ele>89.1</ele>
        <time>2014-03-30T07:54:46Z</time>
      </trkpt>
      <trkpt lat="49.76428" lon="2.00596">
        <ele>89.5</ele>
        <time>2014-03-30T07:54:54Z</time>
      </trkpt>
      <trkpt lat="49.76417" lon="2.0061">
        <ele>91.2</ele>
        <time>2014-03-30T07:55:04Z</time>
      </trkpt>
      <trkpt lat="49.76409" lon="2.00627">
        <ele>92.4</ele>
        <time>2014-03-30T07:55:11Z</time>
      </trkpt>
      <trkpt lat="49.76402" lon="2.00651">
        <ele>94</ele>
        <time>2014-03-30T07:55:20Z</time>
      </trkpt>
      <trkpt lat="49.76389" lon="2.0066">
        <ele>93</ele>
        <time>2014-03-30T07:55:36Z</time>
      </trkpt>
      <trkpt lat="49.76382" lon="2.0068">
        <ele>92.4</ele>
        <time>2014-03-30T07:55:46Z</time>
      </trkpt>
      <trkpt lat="49.76375" lon="2.00698">
        <ele>91.8</ele>
        <time>2014-03-30T07:55:57Z</time>
      </trkpt>
      <trkpt lat="49.7637" lon="2.00718">
        <ele>91.1</ele>
        <time>2014-03-30T07:56:08Z</time>
      </trkpt>
      <trkpt lat="49.76365" lon="2.00738">
        <ele>92.4</ele>
        <time>2014-03-30T07:56:18Z</time>
      </trkpt>
      <trkpt lat="49.76364" lon="2.00761">
        <ele>95.8</ele>
        <time>2014-03-30T07:56:30Z</time>
      </trkpt>
      <trkpt lat="49.76369" lon="2.00781">
        <ele>99.7</ele>
        <time>2014-03-30T07:56:40Z</time>
      </trkpt>
      <trkpt lat="49.76363" lon="2.00782">
        <ele>104.3</ele>
        <time>2014-03-30T07:56:49Z</time>
      </trkpt>
      <trkpt lat="49.76363" lon="2.0076">
        <ele>103.8</ele>
        <time>2014-03-30T07:57:05Z</time>
      </trkpt>
      <trkpt lat="49.76362" lon="2.00738">
        <ele>102.3</ele>
        <time>2014-03-30T07:57:21Z</time>
      </trkpt>
      <trkpt lat="49.76364" lon="2.00716">
        <ele>103</ele>
        <time>2014-03-30T07:57:33Z</time>
      </trkpt>
      <trkpt lat="49.76364" lon="2.00695">
        <ele>105.7</ele>
        <time>2014-03-30T07:57:44Z</time>
      </trkpt>
      <trkpt lat="49.76362" lon="2.00673">
        <ele>106.7</ele>
        <time>2014-03-30T07:57:55Z</time>
      </trkpt>
      <trkpt lat="49.76357" lon="2.00647">
        <ele>107.5</ele>
        <time>2014-03-30T07:58:04Z</time>
      </trkpt>
      <trkpt lat="49.76352" lon="2.00627">
        <ele>108.1</ele>
        <time>2014-03-30T07:58:11Z</time>
      </trkpt>
      <trkpt lat="49.76357" lon="2.00607">
        <ele>108.9</ele>
        <time>2014-03-30T07:58:20Z</time>
      </trkpt>
      <trkpt lat="49.76359" lon="2.00585">
        <ele>109.6</ele>
        <time>2014-03-30T07:58:28Z</time>
      </trkpt>
      <trkpt lat="49.76362" lon="2.00568">
        <ele>110.1</ele>
        <time>2014-03-30T07:58:33Z</time>
      </trkpt>
      <trkpt lat="49.76365" lon="2.00564">
        <ele>110.2</ele>
        <time>2014-03-30T07:58:35Z</time>
      </trkpt>
      <trkpt lat="49.76359" lon="2.00545">
        <ele>110.5</ele>
        <time>2014-03-30T07:58:41Z</time>
      </trkpt>
      <trkpt lat="49.76348" lon="2.0053">
        <ele>111</ele>
        <time>2014-03-30T07:58:48Z</time>
      </trkpt>
      <trkpt lat="49.76342" lon="2.00509">
        <ele>111.5</ele>
        <time>2014-03-30T07:58:56Z</time>
      </trkpt>
      <trkpt lat="49.76348" lon="2.0048">
        <ele>111.8</ele>
        <time>2014-03-30T07:59:02Z</time>
      </trkpt>
      <trkpt lat="49.7636" lon="2.00469">
        <ele>112.8</ele>
        <time>2014-03-30T07:59:18Z</time>
      </trkpt>
      <trkpt lat="49.76367" lon="2.0045">
        <ele>113.6</ele>
        <time>2014-03-30T07:59:31Z</time>
      </trkpt>
      <trkpt lat="49.76369" lon="2.00428">
        <ele>114</ele>
        <time>2014-03-30T07:59:39Z</time>
      </trkpt>
      <trkpt lat="49.76378" lon="2.00412">
        <ele>113.4</ele>
        <time>2014-03-30T07:59:51Z</time>
      </trkpt>
      <trkpt lat="49.76382" lon="2.00392">
        <ele>113</ele>
        <time>2014-03-30T08:00:01Z</time>
      </trkpt>
      <trkpt lat="49.76383" lon="2.0037">
        <ele>112.7</ele>
        <time>2014-03-30T08:00:08Z</time>
      </trkpt>
      <trkpt lat="49.76387" lon="2.00349">
        <ele>112</ele>
        <time>2014-03-30T08:00:23Z</time>
      </trkpt>
      <trkpt lat="49.76392" lon="2.00328">
        <ele>111.7</ele>
        <time>2014-03-30T08:00:29Z</time>
      </trkpt>
      <trkpt lat="49.76397" lon="2.00307">
        <ele>111.2</ele>
        <time>2014-03-30T08:00:40Z</time>
      </trkpt>
      <trkpt lat="49.76408" lon="2.00293">
        <ele>110.5</ele>
        <time>2014-03-30T08:00:50Z</time>
      </trkpt>
      <trkpt lat="49.76418" lon="2.00277">
        <ele>109.6</ele>
        <time>2014-03-30T08:00:59Z</time>
      </trkpt>
      <trkpt lat="49.76417" lon="2.00267">
        <ele>109.1</ele>
        <time>2014-03-30T08:01:04Z</time>
      </trkpt>
      <trkpt lat="49.76422" lon="2.00265">
        <ele>108.6</ele>
        <time>2014-03-30T08:01:08Z</time>
      </trkpt>
      <trkpt lat="49.76427" lon="2.00251">
        <ele>107.4</ele>
        <time>2014-03-30T08:01:20Z</time>
      </trkpt>
      <trkpt lat="49.76416" lon="2.00237">
        <ele>106.8</ele>
        <time>2014-03-30T08:01:25Z</time>
      </trkpt>
      <trkpt lat="49.76408" lon="2.00219">
        <ele>105.5</ele>
        <time>2014-03-30T08:01:33Z</time>
      </trkpt>
      <trkpt lat="49.76395" lon="2.00208">
        <ele>105.2</ele>
        <time>2014-03-30T08:01:43Z</time>
      </trkpt>
      <trkpt lat="49.76381" lon="2.00209">
        <ele>105.9</ele>
        <time>2014-03-30T08:01:51Z</time>
      </trkpt>
      <trkpt lat="49.76369" lon="2.00197">
        <ele>107.3</ele>
        <time>2014-03-30T08:02:06Z</time>
      </trkpt>
      <trkpt lat="49.76355" lon="2.00194">
        <ele>108.9</ele>
        <time>2014-03-30T08:02:20Z</time>
      </trkpt>
      <trkpt lat="49.76341" lon="2.00191">
        <ele>110.4</ele>
        <time>2014-03-30T08:02:30Z</time>
      </trkpt>
      <trkpt lat="49.76327" lon="2.00191">
        <ele>111.7</ele>
        <time>2014-03-30T08:02:39Z</time>
      </trkpt>
      <trkpt lat="49.76312" lon="2.00185">
        <ele>112.2</ele>
        <time>2014-03-30T08:02:56Z</time>
      </trkpt>
      <trkpt lat="49.76299" lon="2.00189">
        <ele>112.7</ele>
        <time>2014-03-30T08:03:08Z</time>
      </trkpt>
      <trkpt lat="49.76284" lon="2.00185">
        <ele>113.5</ele>
        <time>2014-03-30T08:03:19Z</time>
      </trkpt>
      <trkpt lat="49.76271" lon="2.00177">
        <ele>114</ele>
        <time>2014-03-30T08:03:27Z</time>
      </trkpt>
      <trkpt lat="49.76257" lon="2.00181">
        <ele>114.7</ele>
        <time>2014-03-30T08:03:37Z</time>
      </trkpt>
      <trkpt lat="49.76244" lon="2.00184">
        <ele>115.3</ele>
        <time>2014-03-30T08:03:44Z</time>
      </trkpt>
      <trkpt lat="49.76232" lon="2.00173">
        <ele>117.1</ele>
        <time>2014-03-30T08:03:58Z</time>
      </trkpt>
      <trkpt lat="49.7623" lon="2.0017">
        <ele>117.5</ele>
        <time>2014-03-30T08:04:01Z</time>
      </trkpt>
      <trkpt lat="49.76217" lon="2.00177">
        <ele>119.2</ele>
        <time>2014-03-30T08:04:14Z</time>
      </trkpt>
      <trkpt lat="49.76204" lon="2.00169">
        <ele>120</ele>
        <time>2014-03-30T08:04:27Z</time>
      </trkpt>
      <trkpt lat="49.7619" lon="2.00174">
        <ele>121.3</ele>
        <time>2014-03-30T08:04:37Z</time>
      </trkpt>
      <trkpt lat="49.76175" lon="2.00174">
        <ele>122.3</ele>
        <time>2014-03-30T08:04:51Z</time>
      </trkpt>
      <trkpt lat="49.76163" lon="2.00187">
        <ele>123.7</ele>
        <time>2014-03-30T08:05:00Z</time>
      </trkpt>
      <trkpt lat="49.76152" lon="2.00204">
        <ele>125.1</ele>
        <time>2014-03-30T08:05:09Z</time>
      </trkpt>
      <trkpt lat="49.76139" lon="2.00212">
        <ele>126.6</ele>
        <time>2014-03-30T08:05:17Z</time>
      </trkpt>
      <trkpt lat="49.76126" lon="2.00226">
        <ele>129.1</ele>
        <time>2014-03-30T08:05:26Z</time>
      </trkpt>
      <trkpt lat="49.76114" lon="2.00236">
        <ele>131.4</ele>
        <time>2014-03-30T08:05:34Z</time>
      </trkpt>
      <trkpt lat="49.76099" lon="2.00241">
        <ele>134.8</ele>
        <time>2014-03-30T08:05:46Z</time>
      </trkpt>
      <trkpt lat="49.76087" lon="2.00249">
        <ele>137.4</ele>
        <time>2014-03-30T08:05:56Z</time>
      </trkpt>
      <trkpt lat="49.76076" lon="2.00264">
        <ele>140</ele>
        <time>2014-03-30T08:06:06Z</time>
      </trkpt>
      <trkpt lat="49.76063" lon="2.00277">
        <ele>144.1</ele>
        <time>2014-03-30T08:06:14Z</time>
      </trkpt>
      <trkpt lat="49.76055" lon="2.00293">
        <ele>146.9</ele>
        <time>2014-03-30T08:06:22Z</time>
      </trkpt>
      <trkpt lat="49.76046" lon="2.00309">
        <ele>149.4</ele>
        <time>2014-03-30T08:06:30Z</time>
      </trkpt>
      <trkpt lat="49.76035" lon="2.00323">
        <ele>151.5</ele>
        <time>2014-03-30T08:06:42Z</time>
      </trkpt>
      <trkpt lat="49.76023" lon="2.00335">
        <ele>152.8</ele>
        <time>2014-03-30T08:06:54Z</time>
      </trkpt>
      <trkpt lat="49.76013" lon="2.0035">
        <ele>153.7</ele>
        <time>2014-03-30T08:07:04Z</time>
      </trkpt>
      <trkpt lat="49.76004" lon="2.00368">
        <ele>157.3</ele>
        <time>2014-03-30T08:07:15Z</time>
      </trkpt>
      <trkpt lat="49.75994" lon="2.00382">
        <ele>158.7</ele>
        <time>2014-03-30T08:07:24Z</time>
      </trkpt>
      <trkpt lat="49.7598" lon="2.00384">
        <ele>160.4</ele>
        <time>2014-03-30T08:07:35Z</time>
      </trkpt>
      <trkpt lat="49.75965" lon="2.00385">
        <ele>161</ele>
        <time>2014-03-30T08:07:48Z</time>
      </trkpt>
      <trkpt lat="49.75951" lon="2.00385">
        <ele>161</ele>
        <time>2014-03-30T08:07:59Z</time>
      </trkpt>
      <trkpt lat="49.75937" lon="2.00389">
        <ele>161.7</ele>
        <time>2014-03-30T08:08:10Z</time>
      </trkpt>
      <trkpt lat="49.75925" lon="2.0038">
        <ele>162.7</ele>
        <time>2014-03-30T08:08:20Z</time>
      </trkpt>
      <trkpt lat="49.75918" lon="2.00368">
        <ele>163.5</ele>
        <time>2014-03-30T08:08:29Z</time>
      </trkpt>
      <trkpt lat="49.75903" lon="2.00369">
        <ele>166</ele>
        <time>2014-03-30T08:08:38Z</time>
      </trkpt>
      <trkpt lat="49.75889" lon="2.0037">
        <ele>169.5</ele>
        <time>2014-03-30T08:08:48Z</time>
      </trkpt>
      <trkpt lat="49.75875" lon="2.00368">
        <ele>171.6</ele>
        <time>2014-03-30T08:08:55Z</time>
      </trkpt>
      <trkpt lat="49.75863" lon="2.00355">
        <ele>173.1</ele>
        <time>2014-03-30T08:09:08Z</time>
      </trkpt>
      <trkpt lat="49.75851" lon="2.00345">
        <ele>169.1</ele>
        <time>2014-03-30T08:09:24Z</time>
      </trkpt>
      <trkpt lat="49.75839" lon="2.00332">
        <ele>170</ele>
        <time>2014-03-30T08:09:33Z</time>
      </trkpt>
      <trkpt lat="49.75828" lon="2.00316">
        <ele>170.2</ele>
        <time>2014-03-30T08:09:45Z</time>
      </trkpt>
      <trkpt lat="49.75816" lon="2.00306">
        <ele>170.4</ele>
        <time>2014-03-30T08:09:54Z</time>
      </trkpt>
      <trkpt lat="49.75803" lon="2.00305">
        <ele>170.6</ele>
        <time>2014-03-30T08:10:05Z</time>
      </trkpt>
      <trkpt lat="49.758" lon="2.00336">
        <ele>172</ele>
        <time>2014-03-30T08:11:24Z</time>
      </trkpt>
      <trkpt lat="49.75802" lon="2.00334">
        <ele>170.5</ele>
        <time>2014-03-30T08:11:56Z</time>
      </trkpt>
      <trkpt lat="49.75798" lon="2.00336">
        <ele>169.5</ele>
        <time>2014-03-30T08:12:17Z</time>
      </trkpt>
      <trkpt lat="49.75799" lon="2.0033">
        <ele>168.9</ele>
        <time>2014-03-30T08:12:30Z</time>
      </trkpt>
      <trkpt lat="49.75797" lon="2.00327">
        <ele>168.3</ele>
        <time>2014-03-30T08:12:43Z</time>
      </trkpt>
      <trkpt lat="49.75785" lon="2.00326">
        <ele>155.2</ele>
        <time>2014-03-30T08:13:39Z</time>
      </trkpt>
      <trkpt lat="49.75786" lon="2.00334">
        <ele>159.5</ele>
        <time>2014-03-30T08:13:46Z</time>
      </trkpt>
      <trkpt lat="49.75798" lon="2.00335">
        <ele>167</ele>
        <time>2014-03-30T08:14:30Z</time>
      </trkpt>
      <trkpt lat="49.7581" lon="2.00317">
        <ele>166.5</ele>
        <time>2014-03-30T08:14:38Z</time>
      </trkpt>
      <trkpt lat="49.75811" lon="2.00315">
        <ele>166.2</ele>
        <time>2014-03-30T08:14:44Z</time>
      </trkpt>
      <trkpt lat="49.7581" lon="2.00333">
        <ele>165.7</ele>
        <time>2014-03-30T08:14:53Z</time>
      </trkpt>
      <trkpt lat="49.75799" lon="2.00336">
        <ele>165.6</ele>
        <time>2014-03-30T08:14:58Z</time>
      </trkpt>
      <trkpt lat="49.75799" lon="2.00336">
        <ele>165.6</ele>
        <time>2014-03-30T08:15:47Z</time>
      </trkpt>
      <trkpt lat="49.75792" lon="2.00333">
        <ele>165.8</ele>
        <time>2014-03-30T08:15:47Z</time>
      </trkpt>
      <trkpt lat="49.75784" lon="2.0035">
        <ele>166.4</ele>
        <time>2014-03-30T08:15:59Z</time>
      </trkpt>
      <trkpt lat="49.75779" lon="2.0037">
        <ele>166.9</ele>
        <time>2014-03-30T08:16:09Z</time>
      </trkpt>
      <trkpt lat="49.75776" lon="2.00392">
        <ele>168.3</ele>
        <time>2014-03-30T08:16:18Z</time>
      </trkpt>
      <trkpt lat="49.75762" lon="2.00397">
        <ele>170.5</ele>
        <time>2014-03-30T08:16:33Z</time>
      </trkpt>
      <trkpt lat="49.75754" lon="2.00414">
        <ele>171.6</ele>
        <time>2014-03-30T08:16:41Z</time>
      </trkpt>
      <trkpt lat="49.75745" lon="2.00431">
        <ele>173</ele>
        <time>2014-03-30T08:16:51Z</time>
      </trkpt>
      <trkpt lat="49.75734" lon="2.00447">
        <ele>173.5</ele>
        <time>2014-03-30T08:17:01Z</time>
      </trkpt>
      <trkpt lat="49.75722" lon="2.00458">
        <ele>172.1</ele>
        <time>2014-03-30T08:17:10Z</time>
      </trkpt>
      <trkpt lat="49.75712" lon="2.00474">
        <ele>172.8</ele>
        <time>2014-03-30T08:17:19Z</time>
      </trkpt>
      <trkpt lat="49.75703" lon="2.0049">
        <ele>173.8</ele>
        <time>2014-03-30T08:17:32Z</time>
      </trkpt>
      <trkpt lat="49.75693" lon="2.00506">
        <ele>174.7</ele>
        <time>2014-03-30T08:17:44Z</time>
      </trkpt>
      <trkpt lat="49.75684" lon="2.00525">
        <ele>175.6</ele>
        <time>2014-03-30T08:17:55Z</time>
      </trkpt>
      <trkpt lat="49.75676" lon="2.00541">
        <ele>178</ele>
        <time>2014-03-30T08:18:04Z</time>
      </trkpt>
      <trkpt lat="49.7567" lon="2.0056">
        <ele>179.5</ele>
        <time>2014-03-30T08:18:11Z</time>
      </trkpt>
      <trkpt lat="49.7566" lon="2.00577">
        <ele>180.7</ele>
        <time>2014-03-30T08:18:22Z</time>
      </trkpt>
      <trkpt lat="49.75651" lon="2.00595">
        <ele>181.6</ele>
        <time>2014-03-30T08:18:30Z</time>
      </trkpt>
      <trkpt lat="49.75644" lon="2.00613">
        <ele>181.8</ele>
        <time>2014-03-30T08:18:38Z</time>
      </trkpt>
      <trkpt lat="49.75632" lon="2.00622">
        <ele>181.1</ele>
        <time>2014-03-30T08:18:53Z</time>
      </trkpt>
      <trkpt lat="49.7562" lon="2.00634">
        <ele>183.1</ele>
        <time>2014-03-30T08:19:07Z</time>
      </trkpt>
      <trkpt lat="49.75612" lon="2.00653">
        <ele>183.9</ele>
        <time>2014-03-30T08:19:15Z</time>
      </trkpt>
      <trkpt lat="49.75603" lon="2.00669">
        <ele>183.4</ele>
        <time>2014-03-30T08:19:24Z</time>
      </trkpt>
      <trkpt lat="49.75592" lon="2.00683">
        <ele>182.9</ele>
        <time>2014-03-30T08:19:34Z</time>
      </trkpt>
      <trkpt lat="49.75584" lon="2.00701">
        <ele>182.5</ele>
        <time>2014-03-30T08:19:44Z</time>
      </trkpt>
      <trkpt lat="49.75572" lon="2.00714">
        <ele>181.9</ele>
        <time>2014-03-30T08:19:56Z</time>
      </trkpt>
      <trkpt lat="49.75563" lon="2.0073">
        <ele>181.5</ele>
        <time>2014-03-30T08:20:04Z</time>
      </trkpt>
      <trkpt lat="49.75556" lon="2.00749">
        <ele>181</ele>
        <time>2014-03-30T08:20:13Z</time>
      </trkpt>
      <trkpt lat="49.75544" lon="2.00759">
        <ele>179.7</ele>
        <time>2014-03-30T08:20:27Z</time>
      </trkpt>
      <trkpt lat="49.7553" lon="2.00778">
        <ele>178.7</ele>
        <time>2014-03-30T08:20:36Z</time>
      </trkpt>
      <trkpt lat="49.75523" lon="2.00796">
        <ele>179.2</ele>
        <time>2014-03-30T08:20:51Z</time>
      </trkpt>
      <trkpt lat="49.75509" lon="2.00802">
        <ele>181.3</ele>
        <time>2014-03-30T08:21:05Z</time>
      </trkpt>
      <trkpt lat="49.75497" lon="2.00817">
        <ele>182.5</ele>
        <time>2014-03-30T08:21:13Z</time>
      </trkpt>
      <trkpt lat="49.75488" lon="2.00835">
        <ele>182.3</ele>
        <time>2014-03-30T08:21:20Z</time>
      </trkpt>
      <trkpt lat="49.75474" lon="2.00842">
        <ele>180.5</ele>
        <time>2014-03-30T08:21:30Z</time>
      </trkpt>
      <trkpt lat="49.75461" lon="2.00856">
        <ele>182.6</ele>
        <time>2014-03-30T08:21:41Z</time>
      </trkpt>
      <trkpt lat="49.75456" lon="2.00859">
        <ele>181.4</ele>
        <time>2014-03-30T08:21:47Z</time>
      </trkpt>
      <trkpt lat="49.75454" lon="2.00856">
        <ele>180.2</ele>
        <time>2014-03-30T08:21:54Z</time>
      </trkpt>
      <trkpt lat="49.75442" lon="2.00868">
        <ele>176.9</ele>
        <time>2014-03-30T08:22:04Z</time>
      </trkpt>
      <trkpt lat="49.75427" lon="2.00869">
        <ele>176.7</ele>
        <time>2014-03-30T08:22:15Z</time>
      </trkpt>
      <trkpt lat="49.75422" lon="2.00864">
        <ele>176.5</ele>
        <time>2014-03-30T08:22:25Z</time>
      </trkpt>
      <trkpt lat="49.75425" lon="2.00886">
        <ele>176.3</ele>
        <time>2014-03-30T08:22:30Z</time>
      </trkpt>
      <trkpt lat="49.75428" lon="2.00909">
        <ele>176.2</ele>
        <time>2014-03-30T08:22:35Z</time>
      </trkpt>
      <trkpt lat="49.75432" lon="2.00929">
        <ele>176.1</ele>
        <time>2014-03-30T08:22:42Z</time>
      </trkpt>
      <trkpt lat="49.75441" lon="2.00946">
        <ele>175.9</ele>
        <time>2014-03-30T08:22:51Z</time>
      </trkpt>
      <trkpt lat="49.75447" lon="2.00965">
        <ele>175.6</ele>
        <time>2014-03-30T08:23:00Z</time>
      </trkpt>
      <trkpt lat="49.75445" lon="2.00988">
        <ele>175.4</ele>
        <time>2014-03-30T08:23:09Z</time>
      </trkpt>
      <trkpt lat="49.75444" lon="2.01012">
        <ele>175.3</ele>
        <time>2014-03-30T08:23:17Z</time>
      </trkpt>
      <trkpt lat="49.75447" lon="2.01033">
        <ele>175.1</ele>
        <time>2014-03-30T08:23:25Z</time>
      </trkpt>
      <trkpt lat="49.75457" lon="2.01055">
        <ele>174.9</ele>
        <time>2014-03-30T08:23:34Z</time>
      </trkpt>
      <trkpt lat="49.75459" lon="2.0106">
        <ele>174.7</ele>
        <time>2014-03-30T08:23:41Z</time>
      </trkpt>
      <trkpt lat="49.75471" lon="2.01074">
        <ele>174.5</ele>
        <time>2014-03-30T08:23:51Z</time>
      </trkpt>
      <trkpt lat="49.75471" lon="2.01097">
        <ele>174.2</ele>
        <time>2014-03-30T08:24:03Z</time>
      </trkpt>
      <trkpt lat="49.75473" lon="2.01118">
        <ele>174</ele>
        <time>2014-03-30T08:24:12Z</time>
      </trkpt>
      <trkpt lat="49.75473" lon="2.01139">
        <ele>173</ele>
        <time>2014-03-30T08:24:20Z</time>
      </trkpt>
      <trkpt lat="49.75474" lon="2.01162">
        <ele>171.7</ele>
        <time>2014-03-30T08:24:31Z</time>
      </trkpt>
      <trkpt lat="49.75472" lon="2.01184">
        <ele>170.7</ele>
        <time>2014-03-30T08:24:40Z</time>
      </trkpt>
      <trkpt lat="49.75461" lon="2.01198">
        <ele>169.6</ele>
        <time>2014-03-30T08:24:49Z</time>
      </trkpt>
      <trkpt lat="49.75465" lon="2.01218">
        <ele>168.7</ele>
        <time>2014-03-30T08:24:56Z</time>
      </trkpt>
      <trkpt lat="49.75466" lon="2.0124">
        <ele>167.7</ele>
        <time>2014-03-30T08:25:05Z</time>
      </trkpt>
      <trkpt lat="49.75459" lon="2.01259">
        <ele>166.5</ele>
        <time>2014-03-30T08:25:15Z</time>
      </trkpt>
      <trkpt lat="49.75453" lon="2.01279">
        <ele>165.3</ele>
        <time>2014-03-30T08:25:25Z</time>
      </trkpt>
      <trkpt lat="49.75448" lon="2.01299">
        <ele>164.2</ele>
        <time>2014-03-30T08:25:34Z</time>
      </trkpt>
      <trkpt lat="49.75446" lon="2.0132">
        <ele>163.1</ele>
        <time>2014-03-30T08:25:43Z</time>
      </trkpt>
      <trkpt lat="49.75448" lon="2.01341">
        <ele>157</ele>
        <time>2014-03-30T08:25:55Z</time>
      </trkpt>
      <trkpt lat="49.75444" lon="2.01362">
        <ele>150.2</ele>
        <time>2014-03-30T08:26:08Z</time>
      </trkpt>
      <trkpt lat="49.75445" lon="2.01386">
        <ele>143.1</ele>
        <time>2014-03-30T08:26:18Z</time>
      </trkpt>
      <trkpt lat="49.75449" lon="2.01408">
        <ele>145.3</ele>
        <time>2014-03-30T08:26:30Z</time>
      </trkpt>
      <trkpt lat="49.75448" lon="2.0143">
        <ele>143.9</ele>
        <time>2014-03-30T08:26:37Z</time>
      </trkpt>
      <trkpt lat="49.75446" lon="2.0145">
        <ele>136.1</ele>
        <time>2014-03-30T08:26:48Z</time>
      </trkpt>
      <trkpt lat="49.75441" lon="2.01472">
        <ele>139.3</ele>
        <time>2014-03-30T08:26:55Z</time>
      </trkpt>
      <trkpt lat="49.75442" lon="2.01494">
        <ele>137.2</ele>
        <time>2014-03-30T08:27:07Z</time>
      </trkpt>
      <trkpt lat="49.75433" lon="2.01513">
        <ele>140</ele>
        <time>2014-03-30T08:27:17Z</time>
      </trkpt>
      <trkpt lat="49.75432" lon="2.01534">
        <ele>139.4</ele>
        <time>2014-03-30T08:27:23Z</time>
      </trkpt>
      <trkpt lat="49.75427" lon="2.01558">
        <ele>138</ele>
        <time>2014-03-30T08:27:36Z</time>
      </trkpt>
      <trkpt lat="49.75415" lon="2.01572">
        <ele>136.7</ele>
        <time>2014-03-30T08:27:48Z</time>
      </trkpt>
      <trkpt lat="49.75405" lon="2.01586">
        <ele>136</ele>
        <time>2014-03-30T08:27:55Z</time>
      </trkpt>
      <trkpt lat="49.75402" lon="2.01607">
        <ele>135.2</ele>
        <time>2014-03-30T08:28:03Z</time>
      </trkpt>
      <trkpt lat="49.75401" lon="2.01629">
        <ele>134.1</ele>
        <time>2014-03-30T08:28:13Z</time>
      </trkpt>
      <trkpt lat="49.75398" lon="2.0165">
        <ele>137</ele>
        <time>2014-03-30T08:28:27Z</time>
      </trkpt>
      <trkpt lat="49.75399" lon="2.01673">
        <ele>133.2</ele>
        <time>2014-03-30T08:28:36Z</time>
      </trkpt>
      <trkpt lat="49.754" lon="2.01695">
        <ele>133.7</ele>
        <time>2014-03-30T08:28:46Z</time>
      </trkpt>
      <trkpt lat="49.75389" lon="2.01699">
        <ele>134.1</ele>
        <time>2014-03-30T08:28:54Z</time>
      </trkpt>
      <trkpt lat="49.75393" lon="2.01718">
        <ele>134.3</ele>
        <time>2014-03-30T08:28:59Z</time>
      </trkpt>
      <trkpt lat="49.75387" lon="2.0174">
        <ele>134.7</ele>
        <time>2014-03-30T08:29:08Z</time>
      </trkpt>
      <trkpt lat="49.75388" lon="2.01761">
        <ele>135.2</ele>
        <time>2014-03-30T08:29:18Z</time>
      </trkpt>
      <trkpt lat="49.75388" lon="2.01782">
        <ele>135.9</ele>
        <time>2014-03-30T08:29:31Z</time>
      </trkpt>
      <trkpt lat="49.7539" lon="2.01788">
        <ele>135.9</ele>
        <time>2014-03-30T08:29:35Z</time>
      </trkpt>
      <trkpt lat="49.7542" lon="2.01818">
        <ele>135.8</ele>
        <time>2014-03-30T08:29:36Z</time>
      </trkpt>
      <trkpt lat="49.75417" lon="2.01845">
        <ele>135.3</ele>
        <time>2014-03-30T08:29:42Z</time>
      </trkpt>
      <trkpt lat="49.75403" lon="2.01851">
        <ele>134.9</ele>
        <time>2014-03-30T08:29:46Z</time>
      </trkpt>
      <trkpt lat="49.75389" lon="2.01858">
        <ele>134.5</ele>
        <time>2014-03-30T08:29:51Z</time>
      </trkpt>
      <trkpt lat="49.7537" lon="2.01861">
        <ele>133.7</ele>
        <time>2014-03-30T08:29:59Z</time>
      </trkpt>
      <trkpt lat="49.75365" lon="2.0188">
        <ele>132.9</ele>
        <time>2014-03-30T08:30:13Z</time>
      </trkpt>
      <trkpt lat="49.75364" lon="2.01902">
        <ele>132.7</ele>
        <time>2014-03-30T08:30:22Z</time>
      </trkpt>
      <trkpt lat="49.75361" lon="2.01923">
        <ele>132.5</ele>
        <time>2014-03-30T08:30:32Z</time>
      </trkpt>
      <trkpt lat="49.75358" lon="2.01945">
        <ele>132.3</ele>
        <time>2014-03-30T08:30:43Z</time>
      </trkpt>
      <trkpt lat="49.75348" lon="2.01961">
        <ele>132.1</ele>
        <time>2014-03-30T08:30:51Z</time>
      </trkpt>
      <trkpt lat="49.75334" lon="2.01966">
        <ele>132</ele>
        <time>2014-03-30T08:30:58Z</time>
      </trkpt>
      <trkpt lat="49.75321" lon="2.01975">
        <ele>131.8</ele>
        <time>2014-03-30T08:31:08Z</time>
      </trkpt>
      <trkpt lat="49.75316" lon="2.01997">
        <ele>131.5</ele>
        <time>2014-03-30T08:31:21Z</time>
      </trkpt>
      <trkpt lat="49.75305" lon="2.02012">
        <ele>131.3</ele>
        <time>2014-03-30T08:31:33Z</time>
      </trkpt>
      <trkpt lat="49.75299" lon="2.02033">
        <ele>131.2</ele>
        <time>2014-03-30T08:31:38Z</time>
      </trkpt>
      <trkpt lat="49.75284" lon="2.02044">
        <ele>131.1</ele>
        <time>2014-03-30T08:31:45Z</time>
      </trkpt>
      <trkpt lat="49.7527" lon="2.02045">
        <ele>130.9</ele>
        <time>2014-03-30T08:31:51Z</time>
      </trkpt>
      <trkpt lat="49.75264" lon="2.02067">
        <ele>130.8</ele>
        <time>2014-03-30T08:32:00Z</time>
      </trkpt>
      <trkpt lat="49.75246" lon="2.02083">
        <ele>130.4</ele>
        <time>2014-03-30T08:32:16Z</time>
      </trkpt>
      <trkpt lat="49.75253" lon="2.02096">
        <ele>130.3</ele>
        <time>2014-03-30T08:32:24Z</time>
      </trkpt>
      <trkpt lat="49.75266" lon="2.02128">
        <ele>130.3</ele>
        <time>2014-03-30T08:32:25Z</time>
      </trkpt>
      <trkpt lat="49.75258" lon="2.02145">
        <ele>130.9</ele>
        <time>2014-03-30T08:32:48Z</time>
      </trkpt>
      <trkpt lat="49.75251" lon="2.02164">
        <ele>131.4</ele>
        <time>2014-03-30T08:32:53Z</time>
      </trkpt>
      <trkpt lat="49.75245" lon="2.02184">
        <ele>132.1</ele>
        <time>2014-03-30T08:33:01Z</time>
      </trkpt>
      <trkpt lat="49.75245" lon="2.02209">
        <ele>132.8</ele>
        <time>2014-03-30T08:33:09Z</time>
      </trkpt>
      <trkpt lat="49.75243" lon="2.0223">
        <ele>132.1</ele>
        <time>2014-03-30T08:33:17Z</time>
      </trkpt>
      <trkpt lat="49.7523" lon="2.02246">
        <ele>131</ele>
        <time>2014-03-30T08:33:25Z</time>
      </trkpt>
      <trkpt lat="49.75223" lon="2.02265">
        <ele>129.7</ele>
        <time>2014-03-30T08:33:35Z</time>
      </trkpt>
      <trkpt lat="49.75216" lon="2.02283">
        <ele>129</ele>
        <time>2014-03-30T08:33:44Z</time>
      </trkpt>
      <trkpt lat="49.75207" lon="2.02302">
        <ele>128.3</ele>
        <time>2014-03-30T08:33:52Z</time>
      </trkpt>
      <trkpt lat="49.75193" lon="2.02307">
        <ele>127.4</ele>
        <time>2014-03-30T08:34:02Z</time>
      </trkpt>
      <trkpt lat="49.75179" lon="2.02319">
        <ele>126.5</ele>
        <time>2014-03-30T08:34:11Z</time>
      </trkpt>
      <trkpt lat="49.75167" lon="2.02331">
        <ele>125.4</ele>
        <time>2014-03-30T08:34:20Z</time>
      </trkpt>
      <trkpt lat="49.75152" lon="2.02333">
        <ele>123.4</ele>
        <time>2014-03-30T08:34:36Z</time>
      </trkpt>
      <trkpt lat="49.75139" lon="2.02339">
        <ele>122.6</ele>
        <time>2014-03-30T08:34:47Z</time>
      </trkpt>
      <trkpt lat="49.75125" lon="2.02332">
        <ele>122.2</ele>
        <time>2014-03-30T08:34:57Z</time>
      </trkpt>
      <trkpt lat="49.7511" lon="2.02327">
        <ele>121.7</ele>
        <time>2014-03-30T08:35:09Z</time>
      </trkpt>
      <trkpt lat="49.75096" lon="2.02326">
        <ele>121.3</ele>
        <time>2014-03-30T08:35:18Z</time>
      </trkpt>
      <trkpt lat="49.75082" lon="2.02334">
        <ele>120.9</ele>
        <time>2014-03-30T08:35:25Z</time>
      </trkpt>
      <trkpt lat="49.75056" lon="2.02333">
        <ele>107.9</ele>
        <time>2014-03-30T08:35:39Z</time>
      </trkpt>
      <trkpt lat="49.75056" lon="2.02333">
        <ele>107.9</ele>
        <time>2014-03-30T08:36:28Z</time>
      </trkpt>
      <trkpt lat="49.75043" lon="2.02334">
        <ele>95.4</ele>
        <time>2014-03-30T08:36:32Z</time>
      </trkpt>
      <trkpt lat="49.75045" lon="2.02341">
        <ele>95.1</ele>
        <time>2014-03-30T08:36:38Z</time>
      </trkpt>
      <trkpt lat="49.75056" lon="2.02361">
        <ele>95.1</ele>
        <time>2014-03-30T08:36:44Z</time>
      </trkpt>
      <trkpt lat="49.75056" lon="2.02361">
        <ele>95.1</ele>
        <time>2014-03-30T08:39:15Z</time>
      </trkpt>
      <trkpt lat="49.75047" lon="2.02374">
        <ele>95.1</ele>
        <time>2014-03-30T08:39:23Z</time>
      </trkpt>
      <trkpt lat="49.75041" lon="2.02374">
        <ele>95.2</ele>
        <time>2014-03-30T08:39:36Z</time>
      </trkpt>
      <trkpt lat="49.7504" lon="2.02358">
        <ele>95.3</ele>
        <time>2014-03-30T08:39:40Z</time>
      </trkpt>
      <trkpt lat="49.75048" lon="2.02392">
        <ele>95.4</ele>
        <time>2014-03-30T08:39:53Z</time>
      </trkpt>
      <trkpt lat="49.75046" lon="2.02284">
        <ele>95.7</ele>
        <time>2014-03-30T08:40:24Z</time>
      </trkpt>
      <trkpt lat="49.75036" lon="2.02251">
        <ele>95.7</ele>
        <time>2014-03-30T08:40:26Z</time>
      </trkpt>
      <trkpt lat="49.75043" lon="2.02295">
        <ele>96.1</ele>
        <time>2014-03-30T08:40:35Z</time>
      </trkpt>
      <trkpt lat="49.75043" lon="2.02295">
        <ele>96.1</ele>
        <time>2014-03-30T08:41:52Z</time>
      </trkpt>
      <trkpt lat="49.75049" lon="2.02313">
        <ele>96.4</ele>
        <time>2014-03-30T08:41:52Z</time>
      </trkpt>
      <trkpt lat="49.75049" lon="2.02307">
        <ele>88.8</ele>
        <time>2014-03-30T08:42:47Z</time>
      </trkpt>
      <trkpt lat="49.75049" lon="2.02307">
        <ele>88.8</ele>
        <time>2014-03-30T08:49:06Z</time>
      </trkpt>
      <trkpt lat="49.75055" lon="2.0233">
        <ele>83.2</ele>
        <time>2014-03-30T08:49:14Z</time>
      </trkpt>
      <trkpt lat="49.75055" lon="2.0233">
        <ele>83.2</ele>
        <time>2014-03-30T08:51:09Z</time>
      </trkpt>
      <trkpt lat="49.75052" lon="2.02326">
        <ele>85.5</ele>
        <time>2014-03-30T08:51:13Z</time>
      </trkpt>
      <trkpt lat="49.75052" lon="2.02316">
        <ele>85.8</ele>
        <time>2014-03-30T08:51:18Z</time>
      </trkpt>
      <trkpt lat="49.75043" lon="2.02321">
        <ele>86.3</ele>
        <time>2014-03-30T08:51:26Z</time>
      </trkpt>
      <trkpt lat="49.75036" lon="2.02302">
        <ele>87.2</ele>
        <time>2014-03-30T08:51:41Z</time>
      </trkpt>
      <trkpt lat="49.75039" lon="2.02283">
        <ele>87.6</ele>
        <time>2014-03-30T08:51:49Z</time>
      </trkpt>
      <trkpt lat="49.75025" lon="2.02277">
        <ele>88.2</ele>
        <time>2014-03-30T08:51:58Z</time>
      </trkpt>
      <trkpt lat="49.75011" lon="2.02283">
        <ele>88.6</ele>
        <time>2014-03-30T08:52:06Z</time>
      </trkpt>
      <trkpt lat="49.74998" lon="2.02283">
        <ele>87.6</ele>
        <time>2014-03-30T08:52:14Z</time>
      </trkpt>
      <trkpt lat="49.74989" lon="2.02301">
        <ele>85.2</ele>
        <time>2014-03-30T08:52:22Z</time>
      </trkpt>
      <trkpt lat="49.74974" lon="2.02304">
        <ele>85.9</ele>
        <time>2014-03-30T08:52:32Z</time>
      </trkpt>
      <trkpt lat="49.7496" lon="2.02303">
        <ele>86.4</ele>
        <time>2014-03-30T08:52:41Z</time>
      </trkpt>
      <trkpt lat="49.74946" lon="2.02309">
        <ele>87</ele>
        <time>2014-03-30T08:52:50Z</time>
      </trkpt>
      <trkpt lat="49.74933" lon="2.02314">
        <ele>87.6</ele>
        <time>2014-03-30T08:53:01Z</time>
      </trkpt>
      <trkpt lat="49.74919" lon="2.02317">
        <ele>88.2</ele>
        <time>2014-03-30T08:53:10Z</time>
      </trkpt>
      <trkpt lat="49.74907" lon="2.02318">
        <ele>88.8</ele>
        <time>2014-03-30T08:53:20Z</time>
      </trkpt>
      <trkpt lat="49.74893" lon="2.02312">
        <ele>88.2</ele>
        <time>2014-03-30T08:53:31Z</time>
      </trkpt>
      <trkpt lat="49.74883" lon="2.02294">
        <ele>87.2</ele>
        <time>2014-03-30T08:53:41Z</time>
      </trkpt>
      <trkpt lat="49.74874" lon="2.02278">
        <ele>86.2</ele>
        <time>2014-03-30T08:53:51Z</time>
      </trkpt>
      <trkpt lat="49.74868" lon="2.02259">
        <ele>84.8</ele>
        <time>2014-03-30T08:54:03Z</time>
      </trkpt>
      <trkpt lat="49.74858" lon="2.02242">
        <ele>82.4</ele>
        <time>2014-03-30T08:54:16Z</time>
      </trkpt>
      <trkpt lat="49.74849" lon="2.02225">
        <ele>82.6</ele>
        <time>2014-03-30T08:54:27Z</time>
      </trkpt>
      <trkpt lat="49.7484" lon="2.02208">
        <ele>83.3</ele>
        <time>2014-03-30T08:54:36Z</time>
      </trkpt>
      <trkpt lat="49.74839" lon="2.02214">
        <ele>83.7</ele>
        <time>2014-03-30T08:54:42Z</time>
      </trkpt>
      <trkpt lat="49.74828" lon="2.02198">
        <ele>84.7</ele>
        <time>2014-03-30T08:54:56Z</time>
      </trkpt>
      <trkpt lat="49.74818" lon="2.02182">
        <ele>85.3</ele>
        <time>2014-03-30T08:55:04Z</time>
      </trkpt>
      <trkpt lat="49.74807" lon="2.02184">
        <ele>86</ele>
        <time>2014-03-30T08:55:15Z</time>
      </trkpt>
      <trkpt lat="49.74796" lon="2.02198">
        <ele>86.4</ele>
        <time>2014-03-30T08:55:22Z</time>
      </trkpt>
      <trkpt lat="49.74785" lon="2.0221">
        <ele>86.8</ele>
        <time>2014-03-30T08:55:31Z</time>
      </trkpt>
      <trkpt lat="49.74774" lon="2.02221">
        <ele>87.2</ele>
        <time>2014-03-30T08:55:41Z</time>
      </trkpt>
      <trkpt lat="49.74761" lon="2.02233">
        <ele>87.8</ele>
        <time>2014-03-30T08:55:55Z</time>
      </trkpt>
      <trkpt lat="49.74748" lon="2.02242">
        <ele>88.3</ele>
        <time>2014-03-30T08:56:07Z</time>
      </trkpt>
      <trkpt lat="49.74738" lon="2.02258">
        <ele>88.9</ele>
        <time>2014-03-30T08:56:20Z</time>
      </trkpt>
      <trkpt lat="49.74726" lon="2.02272">
        <ele>89.6</ele>
        <time>2014-03-30T08:56:36Z</time>
      </trkpt>
      <trkpt lat="49.74715" lon="2.02285">
        <ele>90</ele>
        <time>2014-03-30T08:56:44Z</time>
      </trkpt>
      <trkpt lat="49.74714" lon="2.02307">
        <ele>90.6</ele>
        <time>2014-03-30T08:56:59Z</time>
      </trkpt>
      <trkpt lat="49.74714" lon="2.0233">
        <ele>91</ele>
        <time>2014-03-30T08:57:06Z</time>
      </trkpt>
      <trkpt lat="49.74722" lon="2.0235">
        <ele>93.4</ele>
        <time>2014-03-30T08:57:15Z</time>
      </trkpt>
      <trkpt lat="49.74726" lon="2.02372">
        <ele>98.8</ele>
        <time>2014-03-30T08:57:26Z</time>
      </trkpt>
      <trkpt lat="49.74729" lon="2.02393">
        <ele>104.2</ele>
        <time>2014-03-30T08:57:36Z</time>
      </trkpt>
      <trkpt lat="49.74738" lon="2.0241">
        <ele>106.7</ele>
        <time>2014-03-30T08:57:45Z</time>
      </trkpt>
      <trkpt lat="49.74749" lon="2.0242">
        <ele>101</ele>
        <time>2014-03-30T08:57:59Z</time>
      </trkpt>
      <trkpt lat="49.74747" lon="2.02441">
        <ele>98</ele>
        <time>2014-03-30T08:58:12Z</time>
      </trkpt>
      <trkpt lat="49.74752" lon="2.02461">
        <ele>102</ele>
        <time>2014-03-30T08:58:18Z</time>
      </trkpt>
      <trkpt lat="49.74756" lon="2.02481">
        <ele>102.5</ele>
        <time>2014-03-30T08:58:26Z</time>
      </trkpt>
      <trkpt lat="49.74756" lon="2.02502">
        <ele>105.5</ele>
        <time>2014-03-30T08:58:33Z</time>
      </trkpt>
      <trkpt lat="49.74757" lon="2.02525">
        <ele>107.8</ele>
        <time>2014-03-30T08:58:43Z</time>
      </trkpt>
      <trkpt lat="49.74761" lon="2.02546">
        <ele>107.1</ele>
        <time>2014-03-30T08:58:55Z</time>
      </trkpt>
      <trkpt lat="49.74765" lon="2.02568">
        <ele>106.4</ele>
        <time>2014-03-30T08:59:06Z</time>
      </trkpt>
      <trkpt lat="49.74763" lon="2.02588">
        <ele>105.2</ele>
        <time>2014-03-30T08:59:16Z</time>
      </trkpt>
      <trkpt lat="49.74765" lon="2.0261">
        <ele>103</ele>
        <time>2014-03-30T08:59:28Z</time>
      </trkpt>
      <trkpt lat="49.74767" lon="2.02631">
        <ele>101</ele>
        <time>2014-03-30T08:59:39Z</time>
      </trkpt>
      <trkpt lat="49.74767" lon="2.02639">
        <ele>103.5</ele>
        <time>2014-03-30T08:59:44Z</time>
      </trkpt>
      <trkpt lat="49.74761" lon="2.02665">
        <ele>104</ele>
        <time>2014-03-30T08:59:45Z</time>
      </trkpt>
      <trkpt lat="49.74757" lon="2.02664">
        <ele>103.9</ele>
        <time>2014-03-30T08:59:46Z</time>
      </trkpt>
      <trkpt lat="49.74766" lon="2.02681">
        <ele>102.4</ele>
        <time>2014-03-30T09:00:00Z</time>
      </trkpt>
      <trkpt lat="49.74767" lon="2.02703">
        <ele>100.9</ele>
        <time>2014-03-30T09:00:14Z</time>
      </trkpt>
      <trkpt lat="49.74771" lon="2.02723">
        <ele>100.2</ele>
        <time>2014-03-30T09:00:26Z</time>
      </trkpt>
      <trkpt lat="49.74779" lon="2.02742">
        <ele>99.7</ele>
        <time>2014-03-30T09:00:35Z</time>
      </trkpt>
      <trkpt lat="49.74783" lon="2.02764">
        <ele>99</ele>
        <time>2014-03-30T09:00:45Z</time>
      </trkpt>
      <trkpt lat="49.74784" lon="2.02786">
        <ele>98.4</ele>
        <time>2014-03-30T09:00:56Z</time>
      </trkpt>
      <trkpt lat="49.74791" lon="2.02805">
        <ele>99.1</ele>
        <time>2014-03-30T09:01:06Z</time>
      </trkpt>
      <trkpt lat="49.74797" lon="2.02823">
        <ele>100.3</ele>
        <time>2014-03-30T09:01:16Z</time>
      </trkpt>
      <trkpt lat="49.74807" lon="2.02842">
        <ele>97.9</ele>
        <time>2014-03-30T09:01:26Z</time>
      </trkpt>
      <trkpt lat="49.74816" lon="2.02858">
        <ele>96.1</ele>
        <time>2014-03-30T09:01:35Z</time>
      </trkpt>
      <trkpt lat="49.74822" lon="2.02878">
        <ele>94.3</ele>
        <time>2014-03-30T09:01:45Z</time>
      </trkpt>
      <trkpt lat="49.74828" lon="2.02897">
        <ele>93</ele>
        <time>2014-03-30T09:01:57Z</time>
      </trkpt>
      <trkpt lat="49.74834" lon="2.02917">
        <ele>93</ele>
        <time>2014-03-30T09:02:07Z</time>
      </trkpt>
      <trkpt lat="49.74841" lon="2.02937">
        <ele>93</ele>
        <time>2014-03-30T09:02:16Z</time>
      </trkpt>
      <trkpt lat="49.74848" lon="2.02956">
        <ele>91.4</ele>
        <time>2014-03-30T09:02:28Z</time>
      </trkpt>
      <trkpt lat="49.74854" lon="2.02976">
        <ele>89.9</ele>
        <time>2014-03-30T09:02:37Z</time>
      </trkpt>
      <trkpt lat="49.74862" lon="2.02995">
        <ele>89.4</ele>
        <time>2014-03-30T09:02:45Z</time>
      </trkpt>
      <trkpt lat="49.74868" lon="2.03019">
        <ele>88.5</ele>
        <time>2014-03-30T09:02:57Z</time>
      </trkpt>
      <trkpt lat="49.74879" lon="2.03032">
        <ele>87.8</ele>
        <time>2014-03-30T09:03:08Z</time>
      </trkpt>
      <trkpt lat="49.74888" lon="2.03047">
        <ele>87.2</ele>
        <time>2014-03-30T09:03:16Z</time>
      </trkpt>
      <trkpt lat="49.74896" lon="2.03065">
        <ele>86.6</ele>
        <time>2014-03-30T09:03:25Z</time>
      </trkpt>
      <trkpt lat="49.74903" lon="2.03083">
        <ele>86.3</ele>
        <time>2014-03-30T09:03:35Z</time>
      </trkpt>
      <trkpt lat="49.74911" lon="2.03102">
        <ele>87.9</ele>
        <time>2014-03-30T09:03:47Z</time>
      </trkpt>
      <trkpt lat="49.74923" lon="2.03117">
        <ele>89.4</ele>
        <time>2014-03-30T09:03:58Z</time>
      </trkpt>
      <trkpt lat="49.74932" lon="2.03134">
        <ele>89.5</ele>
        <time>2014-03-30T09:04:06Z</time>
      </trkpt>
      <trkpt lat="49.7493" lon="2.03155">
        <ele>87.9</ele>
        <time>2014-03-30T09:04:18Z</time>
      </trkpt>
      <trkpt lat="49.74935" lon="2.03175">
        <ele>87.3</ele>
        <time>2014-03-30T09:04:29Z</time>
      </trkpt>
      <trkpt lat="49.74942" lon="2.03193">
        <ele>88</ele>
        <time>2014-03-30T09:04:40Z</time>
      </trkpt>
      <trkpt lat="49.74952" lon="2.03208">
        <ele>88.7</ele>
        <time>2014-03-30T09:04:50Z</time>
      </trkpt>
      <trkpt lat="49.74962" lon="2.03226">
        <ele>89.4</ele>
        <time>2014-03-30T09:05:00Z</time>
      </trkpt>
      <trkpt lat="49.7497" lon="2.03244">
        <ele>90.9</ele>
        <time>2014-03-30T09:05:10Z</time>
      </trkpt>
      <trkpt lat="49.74983" lon="2.03257">
        <ele>94</ele>
        <time>2014-03-30T09:05:17Z</time>
      </trkpt>
      <trkpt lat="49.7499" lon="2.03263">
        <ele>94.4</ele>
        <time>2014-03-30T09:05:20Z</time>
      </trkpt>
      <trkpt lat="49.74988" lon="2.03284">
        <ele>89.2</ele>
        <time>2014-03-30T09:05:33Z</time>
      </trkpt>
      <trkpt lat="49.7499" lon="2.03306">
        <ele>88</ele>
        <time>2014-03-30T09:05:44Z</time>
      </trkpt>
      <trkpt lat="49.74998" lon="2.03325">
        <ele>85.9</ele>
        <time>2014-03-30T09:05:56Z</time>
      </trkpt>
      <trkpt lat="49.75005" lon="2.03345">
        <ele>82.4</ele>
        <time>2014-03-30T09:06:06Z</time>
      </trkpt>
      <trkpt lat="49.75016" lon="2.0336">
        <ele>78.3</ele>
        <time>2014-03-30T09:06:17Z</time>
      </trkpt>
      <trkpt lat="49.75025" lon="2.03376">
        <ele>81.2</ele>
        <time>2014-03-30T09:06:27Z</time>
      </trkpt>
      <trkpt lat="49.75029" lon="2.03397">
        <ele>83.3</ele>
        <time>2014-03-30T09:06:36Z</time>
      </trkpt>
      <trkpt lat="49.7504" lon="2.03412">
        <ele>84.2</ele>
        <time>2014-03-30T09:06:46Z</time>
      </trkpt>
      <trkpt lat="49.75047" lon="2.03432">
        <ele>85.2</ele>
        <time>2014-03-30T09:06:57Z</time>
      </trkpt>
      <trkpt lat="49.75051" lon="2.03453">
        <ele>86.1</ele>
        <time>2014-03-30T09:07:07Z</time>
      </trkpt>
      <trkpt lat="49.75058" lon="2.0347">
        <ele>86.9</ele>
        <time>2014-03-30T09:07:16Z</time>
      </trkpt>
      <trkpt lat="49.75065" lon="2.0349">
        <ele>87</ele>
        <time>2014-03-30T09:07:26Z</time>
      </trkpt>
      <trkpt lat="49.75071" lon="2.03511">
        <ele>88.7</ele>
        <time>2014-03-30T09:07:35Z</time>
      </trkpt>
      <trkpt lat="49.75079" lon="2.03528">
        <ele>87.1</ele>
        <time>2014-03-30T09:07:47Z</time>
      </trkpt>
      <trkpt lat="49.75083" lon="2.03549">
        <ele>87.3</ele>
        <time>2014-03-30T09:07:59Z</time>
      </trkpt>
      <trkpt lat="49.7509" lon="2.03567">
        <ele>90</ele>
        <time>2014-03-30T09:08:07Z</time>
      </trkpt>
      <trkpt lat="49.75093" lon="2.03589">
        <ele>89.7</ele>
        <time>2014-03-30T09:08:16Z</time>
      </trkpt>
      <trkpt lat="49.75104" lon="2.03604">
        <ele>87.5</ele>
        <time>2014-03-30T09:08:26Z</time>
      </trkpt>
      <trkpt lat="49.75117" lon="2.03613">
        <ele>85.5</ele>
        <time>2014-03-30T09:08:35Z</time>
      </trkpt>
      <trkpt lat="49.75128" lon="2.03627">
        <ele>83.6</ele>
        <time>2014-03-30T09:08:46Z</time>
      </trkpt>
      <trkpt lat="49.75134" lon="2.03646">
        <ele>81.8</ele>
        <time>2014-03-30T09:08:55Z</time>
      </trkpt>
      <trkpt lat="49.75146" lon="2.03655">
        <ele>80</ele>
        <time>2014-03-30T09:09:06Z</time>
      </trkpt>
      <trkpt lat="49.7515" lon="2.03675">
        <ele>81.6</ele>
        <time>2014-03-30T09:09:15Z</time>
      </trkpt>
      <trkpt lat="49.75161" lon="2.0369">
        <ele>83.9</ele>
        <time>2014-03-30T09:09:28Z</time>
      </trkpt>
      <trkpt lat="49.75164" lon="2.03711">
        <ele>84.7</ele>
        <time>2014-03-30T09:09:36Z</time>
      </trkpt>
      <trkpt lat="49.7517" lon="2.0373">
        <ele>83.4</ele>
        <time>2014-03-30T09:09:46Z</time>
      </trkpt>
      <trkpt lat="49.75173" lon="2.03751">
        <ele>82.4</ele>
        <time>2014-03-30T09:09:53Z</time>
      </trkpt>
      <trkpt lat="49.75179" lon="2.03771">
        <ele>83.7</ele>
        <time>2014-03-30T09:10:05Z</time>
      </trkpt>
      <trkpt lat="49.75186" lon="2.03789">
        <ele>85.1</ele>
        <time>2014-03-30T09:10:15Z</time>
      </trkpt>
      <trkpt lat="49.75195" lon="2.03804">
        <ele>85.8</ele>
        <time>2014-03-30T09:10:26Z</time>
      </trkpt>
      <trkpt lat="49.75204" lon="2.03822">
        <ele>86.4</ele>
        <time>2014-03-30T09:10:36Z</time>
      </trkpt>
      <trkpt lat="49.7521" lon="2.03841">
        <ele>87</ele>
        <time>2014-03-30T09:10:46Z</time>
      </trkpt>
      <trkpt lat="49.75216" lon="2.03862">
        <ele>87.6</ele>
        <time>2014-03-30T09:10:56Z</time>
      </trkpt>
      <trkpt lat="49.7522" lon="2.03883">
        <ele>91.2</ele>
        <time>2014-03-30T09:11:06Z</time>
      </trkpt>
      <trkpt lat="49.75225" lon="2.03903">
        <ele>94.3</ele>
        <time>2014-03-30T09:11:18Z</time>
      </trkpt>
      <trkpt lat="49.75231" lon="2.03922">
        <ele>93.3</ele>
        <time>2014-03-30T09:11:27Z</time>
      </trkpt>
      <trkpt lat="49.75237" lon="2.03941">
        <ele>90.1</ele>
        <time>2014-03-30T09:11:38Z</time>
      </trkpt>
      <trkpt lat="49.75248" lon="2.03955">
        <ele>88.8</ele>
        <time>2014-03-30T09:11:48Z</time>
      </trkpt>
      <trkpt lat="49.75255" lon="2.03973">
        <ele>88.6</ele>
        <time>2014-03-30T09:11:58Z</time>
      </trkpt>
      <trkpt lat="49.75259" lon="2.03994">
        <ele>88.3</ele>
        <time>2014-03-30T09:12:08Z</time>
      </trkpt>
      <trkpt lat="49.75265" lon="2.04014">
        <ele>88</ele>
        <time>2014-03-30T09:12:18Z</time>
      </trkpt>
      <trkpt lat="49.75273" lon="2.04033">
        <ele>86.2</ele>
        <time>2014-03-30T09:12:30Z</time>
      </trkpt>
      <trkpt lat="49.75282" lon="2.04049">
        <ele>85.6</ele>
        <time>2014-03-30T09:12:40Z</time>
      </trkpt>
      <trkpt lat="49.7529" lon="2.04067">
        <ele>87.6</ele>
        <time>2014-03-30T09:12:50Z</time>
      </trkpt>
      <trkpt lat="49.75291" lon="2.04089">
        <ele>89.1</ele>
        <time>2014-03-30T09:12:59Z</time>
      </trkpt>
      <trkpt lat="49.75299" lon="2.04107">
        <ele>91</ele>
        <time>2014-03-30T09:13:10Z</time>
      </trkpt>
      <trkpt lat="49.75304" lon="2.04127">
        <ele>90.7</ele>
        <time>2014-03-30T09:13:19Z</time>
      </trkpt>
      <trkpt lat="49.75307" lon="2.04148">
        <ele>90.4</ele>
        <time>2014-03-30T09:13:28Z</time>
      </trkpt>
      <trkpt lat="49.75316" lon="2.04163">
        <ele>90</ele>
        <time>2014-03-30T09:13:40Z</time>
      </trkpt>
      <trkpt lat="49.75319" lon="2.04186">
        <ele>89.7</ele>
        <time>2014-03-30T09:13:50Z</time>
      </trkpt>
      <trkpt lat="49.75322" lon="2.04208">
        <ele>89.3</ele>
        <time>2014-03-30T09:14:01Z</time>
      </trkpt>
      <trkpt lat="49.75325" lon="2.04228">
        <ele>89</ele>
        <time>2014-03-30T09:14:10Z</time>
      </trkpt>
      <trkpt lat="49.75334" lon="2.04245">
        <ele>88.6</ele>
        <time>2014-03-30T09:14:22Z</time>
      </trkpt>
      <trkpt lat="49.75337" lon="2.04266">
        <ele>88.3</ele>
        <time>2014-03-30T09:14:32Z</time>
      </trkpt>
      <trkpt lat="49.75341" lon="2.04288">
        <ele>88</ele>
        <time>2014-03-30T09:14:42Z</time>
      </trkpt>
      <trkpt lat="49.75347" lon="2.04307">
        <ele>87.6</ele>
        <time>2014-03-30T09:14:54Z</time>
      </trkpt>
      <trkpt lat="49.75356" lon="2.04326">
        <ele>87.3</ele>
        <time>2014-03-30T09:15:03Z</time>
      </trkpt>
      <trkpt lat="49.75363" lon="2.04344">
        <ele>86.9</ele>
        <time>2014-03-30T09:15:12Z</time>
      </trkpt>
      <trkpt lat="49.75367" lon="2.04365">
        <ele>86.2</ele>
        <time>2014-03-30T09:15:24Z</time>
      </trkpt>
      <trkpt lat="49.75374" lon="2.04383">
        <ele>85.6</ele>
        <time>2014-03-30T09:15:33Z</time>
      </trkpt>
      <trkpt lat="49.75382" lon="2.04401">
        <ele>85</ele>
        <time>2014-03-30T09:15:42Z</time>
      </trkpt>
      <trkpt lat="49.75386" lon="2.04422">
        <ele>84.5</ele>
        <time>2014-03-30T09:15:49Z</time>
      </trkpt>
      <trkpt lat="49.75392" lon="2.04442">
        <ele>81.1</ele>
        <time>2014-03-30T09:16:05Z</time>
      </trkpt>
      <trkpt lat="49.75398" lon="2.04462">
        <ele>87.3</ele>
        <time>2014-03-30T09:16:16Z</time>
      </trkpt>
      <trkpt lat="49.75403" lon="2.04482">
        <ele>89.2</ele>
        <time>2014-03-30T09:16:25Z</time>
      </trkpt>
      <trkpt lat="49.75409" lon="2.04501">
        <ele>87.8</ele>
        <time>2014-03-30T09:16:35Z</time>
      </trkpt>
      <trkpt lat="49.75412" lon="2.04521">
        <ele>87.1</ele>
        <time>2014-03-30T09:16:46Z</time>
      </trkpt>
      <trkpt lat="49.75419" lon="2.0454">
        <ele>87.4</ele>
        <time>2014-03-30T09:16:56Z</time>
      </trkpt>
      <trkpt lat="49.7542" lon="2.04545">
        <ele>87.4</ele>
        <time>2014-03-30T09:16:59Z</time>
      </trkpt>
      <trkpt lat="49.75415" lon="2.04567">
        <ele>87.5</ele>
        <time>2014-03-30T09:17:00Z</time>
      </trkpt>
      <trkpt lat="49.75415" lon="2.04574">
        <ele>87.5</ele>
        <time>2014-03-30T09:17:01Z</time>
      </trkpt>
      <trkpt lat="49.75422" lon="2.04578">
        <ele>87.6</ele>
        <time>2014-03-30T09:17:06Z</time>
      </trkpt>
      <trkpt lat="49.75426" lon="2.04596">
        <ele>87.8</ele>
        <time>2014-03-30T09:17:15Z</time>
      </trkpt>
      <trkpt lat="49.7544" lon="2.04602">
        <ele>88.1</ele>
        <time>2014-03-30T09:17:26Z</time>
      </trkpt>
      <trkpt lat="49.75448" lon="2.0462">
        <ele>88.3</ele>
        <time>2014-03-30T09:17:36Z</time>
      </trkpt>
      <trkpt lat="49.75454" lon="2.0464">
        <ele>88.6</ele>
        <time>2014-03-30T09:17:47Z</time>
      </trkpt>
      <trkpt lat="49.75461" lon="2.04658">
        <ele>88.8</ele>
        <time>2014-03-30T09:17:56Z</time>
      </trkpt>
      <trkpt lat="49.75467" lon="2.04677">
        <ele>89.1</ele>
        <time>2014-03-30T09:18:06Z</time>
      </trkpt>
      <trkpt lat="49.75479" lon="2.04689">
        <ele>89.4</ele>
        <time>2014-03-30T09:18:18Z</time>
      </trkpt>
      <trkpt lat="49.75482" lon="2.0471">
        <ele>89.6</ele>
        <time>2014-03-30T09:18:28Z</time>
      </trkpt>
      <trkpt lat="49.75488" lon="2.04731">
        <ele>89.8</ele>
        <time>2014-03-30T09:18:34Z</time>
      </trkpt>
      <trkpt lat="49.75492" lon="2.04752">
        <ele>88.9</ele>
        <time>2014-03-30T09:18:48Z</time>
      </trkpt>
      <trkpt lat="49.75496" lon="2.04772">
        <ele>87.4</ele>
        <time>2014-03-30T09:18:56Z</time>
      </trkpt>
      <trkpt lat="49.75505" lon="2.0479">
        <ele>86.8</ele>
        <time>2014-03-30T09:19:09Z</time>
      </trkpt>
      <trkpt lat="49.75514" lon="2.04808">
        <ele>85.3</ele>
        <time>2014-03-30T09:19:21Z</time>
      </trkpt>
      <trkpt lat="49.75514" lon="2.04831">
        <ele>80.7</ele>
        <time>2014-03-30T09:19:50Z</time>
      </trkpt>
      <trkpt lat="49.75515" lon="2.04855">
        <ele>79</ele>
        <time>2014-03-30T09:19:57Z</time>
      </trkpt>
      <trkpt lat="49.7552" lon="2.04876">
        <ele>84.1</ele>
        <time>2014-03-30T09:20:07Z</time>
      </trkpt>
      <trkpt lat="49.7552" lon="2.04898">
        <ele>85.6</ele>
        <time>2014-03-30T09:20:14Z</time>
      </trkpt>
      <trkpt lat="49.75525" lon="2.0492">
        <ele>87.6</ele>
        <time>2014-03-30T09:20:23Z</time>
      </trkpt>
      <trkpt lat="49.75533" lon="2.04938">
        <ele>87</ele>
        <time>2014-03-30T09:20:35Z</time>
      </trkpt>
      <trkpt lat="49.75536" lon="2.0496">
        <ele>85.8</ele>
        <time>2014-03-30T09:20:48Z</time>
      </trkpt>
      <trkpt lat="49.75539" lon="2.0498">
        <ele>84.9</ele>
        <time>2014-03-30T09:20:57Z</time>
      </trkpt>
      <trkpt lat="49.75541" lon="2.05004">
        <ele>83.8</ele>
        <time>2014-03-30T09:21:09Z</time>
      </trkpt>
      <trkpt lat="49.75544" lon="2.05027">
        <ele>82.9</ele>
        <time>2014-03-30T09:21:17Z</time>
      </trkpt>
      <trkpt lat="49.75549" lon="2.05048">
        <ele>81.6</ele>
        <time>2014-03-30T09:21:28Z</time>
      </trkpt>
      <trkpt lat="49.75554" lon="2.05069">
        <ele>80.4</ele>
        <time>2014-03-30T09:21:42Z</time>
      </trkpt>
      <trkpt lat="49.75558" lon="2.0509">
        <ele>82</ele>
        <time>2014-03-30T09:21:53Z</time>
      </trkpt>
      <trkpt lat="49.75563" lon="2.05109">
        <ele>83.7</ele>
        <time>2014-03-30T09:22:03Z</time>
      </trkpt>
      <trkpt lat="49.75569" lon="2.05129">
        <ele>86.6</ele>
        <time>2014-03-30T09:22:14Z</time>
      </trkpt>
      <trkpt lat="49.75575" lon="2.05153">
        <ele>89.5</ele>
        <time>2014-03-30T09:22:24Z</time>
      </trkpt>
      <trkpt lat="49.7558" lon="2.05181">
        <ele>92.2</ele>
        <time>2014-03-30T09:22:37Z</time>
      </trkpt>
      <trkpt lat="49.75581" lon="2.05203">
        <ele>93.8</ele>
        <time>2014-03-30T09:22:48Z</time>
      </trkpt>
      <trkpt lat="49.75585" lon="2.0523">
        <ele>95.8</ele>
        <time>2014-03-30T09:22:59Z</time>
      </trkpt>
      <trkpt lat="49.75584" lon="2.05252">
        <ele>95</ele>
        <time>2014-03-30T09:23:13Z</time>
      </trkpt>
      <trkpt lat="49.75584" lon="2.05273">
        <ele>91.7</ele>
        <time>2014-03-30T09:23:21Z</time>
      </trkpt>
      <trkpt lat="49.75581" lon="2.05294">
        <ele>90.4</ele>
        <time>2014-03-30T09:23:30Z</time>
      </trkpt>
      <trkpt lat="49.75584" lon="2.05312">
        <ele>89</ele>
        <time>2014-03-30T09:23:40Z</time>
      </trkpt>
      <trkpt lat="49.75585" lon="2.05307">
        <ele>87.6</ele>
        <time>2014-03-30T09:23:42Z</time>
      </trkpt>
      <trkpt lat="49.75587" lon="2.05329">
        <ele>83.4</ele>
        <time>2014-03-30T09:23:53Z</time>
      </trkpt>
      <trkpt lat="49.75587" lon="2.05351">
        <ele>85.5</ele>
        <time>2014-03-30T09:24:04Z</time>
      </trkpt>
      <trkpt lat="49.75583" lon="2.05371">
        <ele>87.6</ele>
        <time>2014-03-30T09:24:15Z</time>
      </trkpt>
      <trkpt lat="49.75581" lon="2.05392">
        <ele>93.7</ele>
        <time>2014-03-30T09:24:26Z</time>
      </trkpt>
      <trkpt lat="49.7558" lon="2.05414">
        <ele>96.4</ele>
        <time>2014-03-30T09:24:36Z</time>
      </trkpt>
      <trkpt lat="49.75581" lon="2.05436">
        <ele>98.6</ele>
        <time>2014-03-30T09:24:50Z</time>
      </trkpt>
      <trkpt lat="49.75574" lon="2.05456">
        <ele>94.8</ele>
        <time>2014-03-30T09:24:59Z</time>
      </trkpt>
      <trkpt lat="49.75567" lon="2.05476">
        <ele>94</ele>
        <time>2014-03-30T09:25:08Z</time>
      </trkpt>
      <trkpt lat="49.75563" lon="2.05497">
        <ele>96.4</ele>
        <time>2014-03-30T09:25:21Z</time>
      </trkpt>
      <trkpt lat="49.75559" lon="2.05517">
        <ele>98.2</ele>
        <time>2014-03-30T09:25:32Z</time>
      </trkpt>
      <trkpt lat="49.75555" lon="2.05538">
        <ele>98.6</ele>
        <time>2014-03-30T09:25:42Z</time>
      </trkpt>
      <trkpt lat="49.75553" lon="2.0556">
        <ele>99.2</ele>
        <time>2014-03-30T09:25:57Z</time>
      </trkpt>
      <trkpt lat="49.75548" lon="2.0558">
        <ele>99.7</ele>
        <time>2014-03-30T09:26:07Z</time>
      </trkpt>
      <trkpt lat="49.75544" lon="2.05601">
        <ele>100.3</ele>
        <time>2014-03-30T09:26:22Z</time>
      </trkpt>
      <trkpt lat="49.75543" lon="2.05623">
        <ele>101.1</ele>
        <time>2014-03-30T09:26:43Z</time>
      </trkpt>
      <trkpt lat="49.75539" lon="2.05646">
        <ele>101.6</ele>
        <time>2014-03-30T09:26:54Z</time>
      </trkpt>
      <trkpt lat="49.75533" lon="2.05702">
        <ele>99.3</ele>
        <time>2014-03-30T09:27:10Z</time>
      </trkpt>
      <trkpt lat="49.75533" lon="2.05702">
        <ele>99.3</ele>
        <time>2014-03-30T09:32:24Z</time>
      </trkpt>
      <trkpt lat="49.75531" lon="2.05738">
        <ele>96.6</ele>
        <time>2014-03-30T09:32:24Z</time>
      </trkpt>
      <trkpt lat="49.75528" lon="2.05759">
        <ele>94.2</ele>
        <time>2014-03-30T09:32:34Z</time>
      </trkpt>
      <trkpt lat="49.75525" lon="2.05781">
        <ele>95.1</ele>
        <time>2014-03-30T09:32:39Z</time>
      </trkpt>
      <trkpt lat="49.75527" lon="2.05798">
        <ele>97.3</ele>
        <time>2014-03-30T09:32:56Z</time>
      </trkpt>
      <trkpt lat="49.75531" lon="2.05818">
        <ele>98.7</ele>
        <time>2014-03-30T09:33:07Z</time>
      </trkpt>
      <trkpt lat="49.75532" lon="2.05839">
        <ele>95.8</ele>
        <time>2014-03-30T09:33:17Z</time>
      </trkpt>
      <trkpt lat="49.75528" lon="2.05859">
        <ele>92.4</ele>
        <time>2014-03-30T09:33:26Z</time>
      </trkpt>
      <trkpt lat="49.75534" lon="2.05839">
        <ele>86.8</ele>
        <time>2014-03-30T09:33:35Z</time>
      </trkpt>
      <trkpt lat="49.75536" lon="2.05819">
        <ele>86.6</ele>
        <time>2014-03-30T09:33:45Z</time>
      </trkpt>
      <trkpt lat="49.75541" lon="2.05797">
        <ele>81.4</ele>
        <time>2014-03-30T09:33:56Z</time>
      </trkpt>
      <trkpt lat="49.75542" lon="2.05776">
        <ele>81.9</ele>
        <time>2014-03-30T09:34:08Z</time>
      </trkpt>
      <trkpt lat="49.75551" lon="2.0576">
        <ele>84.1</ele>
        <time>2014-03-30T09:34:18Z</time>
      </trkpt>
      <trkpt lat="49.75555" lon="2.05739">
        <ele>84.9</ele>
        <time>2014-03-30T09:34:26Z</time>
      </trkpt>
      <trkpt lat="49.75561" lon="2.05719">
        <ele>83.8</ele>
        <time>2014-03-30T09:34:36Z</time>
      </trkpt>
      <trkpt lat="49.75563" lon="2.05708">
        <ele>81.7</ele>
        <time>2014-03-30T09:34:51Z</time>
      </trkpt>
      <trkpt lat="49.75567" lon="2.05731">
        <ele>79</ele>
        <time>2014-03-30T09:35:02Z</time>
      </trkpt>
      <trkpt lat="49.75564" lon="2.05759">
        <ele>76.1</ele>
        <time>2014-03-30T09:35:13Z</time>
      </trkpt>
      <trkpt lat="49.75562" lon="2.05783">
        <ele>76.8</ele>
        <time>2014-03-30T09:35:21Z</time>
      </trkpt>
      <trkpt lat="49.75566" lon="2.05804">
        <ele>77.4</ele>
        <time>2014-03-30T09:35:28Z</time>
      </trkpt>
      <trkpt lat="49.75569" lon="2.05816">
        <ele>77.1</ele>
        <time>2014-03-30T09:35:45Z</time>
      </trkpt>
      <trkpt lat="49.75573" lon="2.05824">
        <ele>76.6</ele>
        <time>2014-03-30T09:35:51Z</time>
      </trkpt>
      <trkpt lat="49.75572" lon="2.05845">
        <ele>76</ele>
        <time>2014-03-30T09:35:57Z</time>
      </trkpt>
      <trkpt lat="49.75569" lon="2.05873">
        <ele>75.5</ele>
        <time>2014-03-30T09:36:04Z</time>
      </trkpt>
      <trkpt lat="49.75574" lon="2.05894">
        <ele>74.4</ele>
        <time>2014-03-30T09:36:16Z</time>
      </trkpt>
      <trkpt lat="49.75571" lon="2.05914">
        <ele>73.8</ele>
        <time>2014-03-30T09:36:22Z</time>
      </trkpt>
      <trkpt lat="49.75574" lon="2.05936">
        <ele>72.1</ele>
        <time>2014-03-30T09:36:37Z</time>
      </trkpt>
      <trkpt lat="49.75576" lon="2.05959">
        <ele>70.9</ele>
        <time>2014-03-30T09:36:48Z</time>
      </trkpt>
      <trkpt lat="49.75573" lon="2.05981">
        <ele>69.5</ele>
        <time>2014-03-30T09:37:01Z</time>
      </trkpt>
      <trkpt lat="49.75581" lon="2.05995">
        <ele>71</ele>
        <time>2014-03-30T09:37:11Z</time>
      </trkpt>
      <trkpt lat="49.75594" lon="2.05993">
        <ele>62.1</ele>
        <time>2014-03-30T09:37:25Z</time>
      </trkpt>
      <trkpt lat="49.75608" lon="2.05999">
        <ele>60</ele>
        <time>2014-03-30T09:37:33Z</time>
      </trkpt>
      <trkpt lat="49.75621" lon="2.06004">
        <ele>58.4</ele>
        <time>2014-03-30T09:37:41Z</time>
      </trkpt>
      <trkpt lat="49.75632" lon="2.06016">
        <ele>56.7</ele>
        <time>2014-03-30T09:37:53Z</time>
      </trkpt>
      <trkpt lat="49.75642" lon="2.06033">
        <ele>52.4</ele>
        <time>2014-03-30T09:38:08Z</time>
      </trkpt>
      <trkpt lat="49.75655" lon="2.06042">
        <ele>56.1</ele>
        <time>2014-03-30T09:38:18Z</time>
      </trkpt>
      <trkpt lat="49.7567" lon="2.06049">
        <ele>59.7</ele>
        <time>2014-03-30T09:38:27Z</time>
      </trkpt>
      <trkpt lat="49.75682" lon="2.06063">
        <ele>63.5</ele>
        <time>2014-03-30T09:38:39Z</time>
      </trkpt>
      <trkpt lat="49.75693" lon="2.06076">
        <ele>64.5</ele>
        <time>2014-03-30T09:38:47Z</time>
      </trkpt>
      <trkpt lat="49.75706" lon="2.06083">
        <ele>69</ele>
        <time>2014-03-30T09:38:55Z</time>
      </trkpt>
      <trkpt lat="49.7572" lon="2.06087">
        <ele>65.9</ele>
        <time>2014-03-30T09:39:05Z</time>
      </trkpt>
      <trkpt lat="49.75732" lon="2.06101">
        <ele>67.6</ele>
        <time>2014-03-30T09:39:17Z</time>
      </trkpt>
      <trkpt lat="49.75742" lon="2.06115">
        <ele>63.8</ele>
        <time>2014-03-30T09:39:26Z</time>
      </trkpt>
      <trkpt lat="49.75752" lon="2.0613">
        <ele>66</ele>
        <time>2014-03-30T09:39:35Z</time>
      </trkpt>
      <trkpt lat="49.75763" lon="2.06143">
        <ele>64</ele>
        <time>2014-03-30T09:39:47Z</time>
      </trkpt>
      <trkpt lat="49.75772" lon="2.0616">
        <ele>62.3</ele>
        <time>2014-03-30T09:39:57Z</time>
      </trkpt>
      <trkpt lat="49.75777" lon="2.0618">
        <ele>60.7</ele>
        <time>2014-03-30T09:40:07Z</time>
      </trkpt>
      <trkpt lat="49.75786" lon="2.06197">
        <ele>59</ele>
        <time>2014-03-30T09:40:18Z</time>
      </trkpt>
      <trkpt lat="49.75799" lon="2.06203">
        <ele>58.6</ele>
        <time>2014-03-30T09:40:28Z</time>
      </trkpt>
      <trkpt lat="49.75814" lon="2.06203">
        <ele>59.5</ele>
        <time>2014-03-30T09:40:38Z</time>
      </trkpt>
      <trkpt lat="49.7583" lon="2.06199">
        <ele>63.6</ele>
        <time>2014-03-30T09:40:48Z</time>
      </trkpt>
      <trkpt lat="49.75844" lon="2.06198">
        <ele>67.2</ele>
        <time>2014-03-30T09:40:59Z</time>
      </trkpt>
      <trkpt lat="49.75856" lon="2.06211">
        <ele>69.1</ele>
        <time>2014-03-30T09:41:09Z</time>
      </trkpt>
      <trkpt lat="49.7587" lon="2.06215">
        <ele>66.6</ele>
        <time>2014-03-30T09:41:19Z</time>
      </trkpt>
      <trkpt lat="49.75881" lon="2.06214">
        <ele>66</ele>
        <time>2014-03-30T09:41:30Z</time>
      </trkpt>
      <trkpt lat="49.75892" lon="2.06203">
        <ele>66</ele>
        <time>2014-03-30T09:41:39Z</time>
      </trkpt>
      <trkpt lat="49.75906" lon="2.06198">
        <ele>67</ele>
        <time>2014-03-30T09:41:48Z</time>
      </trkpt>
      <trkpt lat="49.7592" lon="2.06189">
        <ele>68.5</ele>
        <time>2014-03-30T09:41:59Z</time>
      </trkpt>
      <trkpt lat="49.75934" lon="2.06183">
        <ele>71</ele>
        <time>2014-03-30T09:42:07Z</time>
      </trkpt>
      <trkpt lat="49.75947" lon="2.06179">
        <ele>76.2</ele>
        <time>2014-03-30T09:42:18Z</time>
      </trkpt>
      <trkpt lat="49.75959" lon="2.06168">
        <ele>74.3</ele>
        <time>2014-03-30T09:42:29Z</time>
      </trkpt>
      <trkpt lat="49.75974" lon="2.06168">
        <ele>74.9</ele>
        <time>2014-03-30T09:42:38Z</time>
      </trkpt>
      <trkpt lat="49.75987" lon="2.06161">
        <ele>75.8</ele>
        <time>2014-03-30T09:42:48Z</time>
      </trkpt>
      <trkpt lat="49.75998" lon="2.06148">
        <ele>78.5</ele>
        <time>2014-03-30T09:43:01Z</time>
      </trkpt>
      <trkpt lat="49.76012" lon="2.06144">
        <ele>78.6</ele>
        <time>2014-03-30T09:43:12Z</time>
      </trkpt>
      <trkpt lat="49.76026" lon="2.06141">
        <ele>76.5</ele>
        <time>2014-03-30T09:43:24Z</time>
      </trkpt>
      <trkpt lat="49.76053" lon="2.06133">
        <ele>77</ele>
        <time>2014-03-30T09:43:41Z</time>
      </trkpt>
      <trkpt lat="49.76053" lon="2.06133">
        <ele>77</ele>
        <time>2014-03-30T09:46:04Z</time>
      </trkpt>
      <trkpt lat="49.76066" lon="2.06127">
        <ele>77.6</ele>
        <time>2014-03-30T09:46:06Z</time>
      </trkpt>
      <trkpt lat="49.76075" lon="2.0611">
        <ele>77.6</ele>
        <time>2014-03-30T09:46:18Z</time>
      </trkpt>
      <trkpt lat="49.76086" lon="2.06096">
        <ele>76.3</ele>
        <time>2014-03-30T09:46:26Z</time>
      </trkpt>
      <trkpt lat="49.76094" lon="2.06079">
        <ele>74.4</ele>
        <time>2014-03-30T09:46:38Z</time>
      </trkpt>
      <trkpt lat="49.76102" lon="2.06061">
        <ele>69</ele>
        <time>2014-03-30T09:46:53Z</time>
      </trkpt>
      <trkpt lat="49.76113" lon="2.06046">
        <ele>72.1</ele>
        <time>2014-03-30T09:47:07Z</time>
      </trkpt>
      <trkpt lat="49.76126" lon="2.06038">
        <ele>72.2</ele>
        <time>2014-03-30T09:47:14Z</time>
      </trkpt>
      <trkpt lat="49.76138" lon="2.06027">
        <ele>75.3</ele>
        <time>2014-03-30T09:47:26Z</time>
      </trkpt>
      <trkpt lat="49.76151" lon="2.06018">
        <ele>76.6</ele>
        <time>2014-03-30T09:47:35Z</time>
      </trkpt>
      <trkpt lat="49.76164" lon="2.06011">
        <ele>79</ele>
        <time>2014-03-30T09:47:44Z</time>
      </trkpt>
      <trkpt lat="49.76177" lon="2.06004">
        <ele>83.6</ele>
        <time>2014-03-30T09:47:54Z</time>
      </trkpt>
      <trkpt lat="49.76189" lon="2.05994">
        <ele>82.2</ele>
        <time>2014-03-30T09:48:05Z</time>
      </trkpt>
      <trkpt lat="49.76199" lon="2.05979">
        <ele>80.8</ele>
        <time>2014-03-30T09:48:18Z</time>
      </trkpt>
      <trkpt lat="49.76214" lon="2.05977">
        <ele>82.9</ele>
        <time>2014-03-30T09:48:30Z</time>
      </trkpt>
      <trkpt lat="49.76227" lon="2.05971">
        <ele>87</ele>
        <time>2014-03-30T09:48:40Z</time>
      </trkpt>
      <trkpt lat="49.76238" lon="2.05956">
        <ele>86.8</ele>
        <time>2014-03-30T09:48:53Z</time>
      </trkpt>
      <trkpt lat="49.76252" lon="2.05953">
        <ele>87.9</ele>
        <time>2014-03-30T09:49:05Z</time>
      </trkpt>
      <trkpt lat="49.76266" lon="2.05953">
        <ele>89.5</ele>
        <time>2014-03-30T09:49:19Z</time>
      </trkpt>
      <trkpt lat="49.7628" lon="2.05945">
        <ele>93.7</ele>
        <time>2014-03-30T09:49:32Z</time>
      </trkpt>
      <trkpt lat="49.76295" lon="2.05942">
        <ele>101</ele>
        <time>2014-03-30T09:49:44Z</time>
      </trkpt>
      <trkpt lat="49.76308" lon="2.05934">
        <ele>101</ele>
        <time>2014-03-30T09:49:55Z</time>
      </trkpt>
      <trkpt lat="49.76323" lon="2.05935">
        <ele>97.4</ele>
        <time>2014-03-30T09:50:09Z</time>
      </trkpt>
      <trkpt lat="49.76334" lon="2.0595">
        <ele>103.4</ele>
        <time>2014-03-30T09:50:21Z</time>
      </trkpt>
      <trkpt lat="49.76349" lon="2.05956">
        <ele>107.5</ele>
        <time>2014-03-30T09:50:39Z</time>
      </trkpt>
      <trkpt lat="49.76361" lon="2.05966">
        <ele>107.5</ele>
        <time>2014-03-30T09:50:50Z</time>
      </trkpt>
      <trkpt lat="49.76375" lon="2.05975">
        <ele>106.4</ele>
        <time>2014-03-30T09:51:02Z</time>
      </trkpt>
      <trkpt lat="49.76387" lon="2.05983">
        <ele>102.7</ele>
        <time>2014-03-30T09:51:11Z</time>
      </trkpt>
      <trkpt lat="49.76401" lon="2.05987">
        <ele>105.1</ele>
        <time>2014-03-30T09:51:20Z</time>
      </trkpt>
      <trkpt lat="49.76415" lon="2.05991">
        <ele>105.7</ele>
        <time>2014-03-30T09:51:34Z</time>
      </trkpt>
      <trkpt lat="49.76429" lon="2.05987">
        <ele>106.1</ele>
        <time>2014-03-30T09:51:45Z</time>
      </trkpt>
      <trkpt lat="49.76443" lon="2.05982">
        <ele>106.7</ele>
        <time>2014-03-30T09:51:59Z</time>
      </trkpt>
      <trkpt lat="49.76457" lon="2.05979">
        <ele>107.2</ele>
        <time>2014-03-30T09:52:12Z</time>
      </trkpt>
      <trkpt lat="49.7647" lon="2.05972">
        <ele>107.7</ele>
        <time>2014-03-30T09:52:25Z</time>
      </trkpt>
      <trkpt lat="49.76484" lon="2.05969">
        <ele>108.9</ele>
        <time>2014-03-30T09:52:38Z</time>
      </trkpt>
      <trkpt lat="49.76498" lon="2.05967">
        <ele>110.8</ele>
        <time>2014-03-30T09:52:48Z</time>
      </trkpt>
      <trkpt lat="49.76511" lon="2.05979">
        <ele>112.5</ele>
        <time>2014-03-30T09:53:02Z</time>
      </trkpt>
      <trkpt lat="49.76524" lon="2.05977">
        <ele>113.5</ele>
        <time>2014-03-30T09:53:12Z</time>
      </trkpt>
      <trkpt lat="49.76538" lon="2.05974">
        <ele>113.4</ele>
        <time>2014-03-30T09:53:24Z</time>
      </trkpt>
      <trkpt lat="49.76551" lon="2.05965">
        <ele>113.3</ele>
        <time>2014-03-30T09:53:37Z</time>
      </trkpt>
      <trkpt lat="49.76561" lon="2.05952">
        <ele>113.6</ele>
        <time>2014-03-30T09:53:46Z</time>
      </trkpt>
      <trkpt lat="49.76571" lon="2.05938">
        <ele>114.1</ele>
        <time>2014-03-30T09:54:00Z</time>
      </trkpt>
      <trkpt lat="49.76581" lon="2.05923">
        <ele>114.5</ele>
        <time>2014-03-30T09:54:12Z</time>
      </trkpt>
      <trkpt lat="49.7659" lon="2.05907">
        <ele>115</ele>
        <time>2014-03-30T09:54:24Z</time>
      </trkpt>
      <trkpt lat="49.766" lon="2.05892">
        <ele>115.4</ele>
        <time>2014-03-30T09:54:36Z</time>
      </trkpt>
      <trkpt lat="49.76609" lon="2.05874">
        <ele>115.7</ele>
        <time>2014-03-30T09:54:44Z</time>
      </trkpt>
      <trkpt lat="49.7662" lon="2.05862">
        <ele>117</ele>
        <time>2014-03-30T09:54:57Z</time>
      </trkpt>
      <trkpt lat="49.76632" lon="2.05852">
        <ele>119.5</ele>
        <time>2014-03-30T09:55:07Z</time>
      </trkpt>
      <trkpt lat="49.76643" lon="2.05838">
        <ele>122.1</ele>
        <time>2014-03-30T09:55:17Z</time>
      </trkpt>
      <trkpt lat="49.7665" lon="2.05819">
        <ele>126.5</ele>
        <time>2014-03-30T09:55:28Z</time>
      </trkpt>
      <trkpt lat="49.7666" lon="2.05802">
        <ele>129.6</ele>
        <time>2014-03-30T09:55:36Z</time>
      </trkpt>
      <trkpt lat="49.7667" lon="2.05788">
        <ele>132</ele>
        <time>2014-03-30T09:55:50Z</time>
      </trkpt>
      <trkpt lat="49.76675" lon="2.05767">
        <ele>132</ele>
        <time>2014-03-30T09:56:02Z</time>
      </trkpt>
      <trkpt lat="49.76685" lon="2.05753">
        <ele>132</ele>
        <time>2014-03-30T09:56:15Z</time>
      </trkpt>
      <trkpt lat="49.76696" lon="2.05738">
        <ele>131.1</ele>
        <time>2014-03-30T09:56:26Z</time>
      </trkpt>
      <trkpt lat="49.76707" lon="2.05725">
        <ele>129.7</ele>
        <time>2014-03-30T09:56:34Z</time>
      </trkpt>
      <trkpt lat="49.76718" lon="2.05713">
        <ele>128.3</ele>
        <time>2014-03-30T09:56:42Z</time>
      </trkpt>
      <trkpt lat="49.76727" lon="2.05697">
        <ele>126.3</ele>
        <time>2014-03-30T09:56:54Z</time>
      </trkpt>
      <trkpt lat="49.76737" lon="2.05681">
        <ele>125.4</ele>
        <time>2014-03-30T09:57:07Z</time>
      </trkpt>
      <trkpt lat="49.7675" lon="2.05673">
        <ele>124.8</ele>
        <time>2014-03-30T09:57:17Z</time>
      </trkpt>
      <trkpt lat="49.76764" lon="2.05665">
        <ele>124.4</ele>
        <time>2014-03-30T09:57:25Z</time>
      </trkpt>
      <trkpt lat="49.76778" lon="2.0566">
        <ele>123.8</ele>
        <time>2014-03-30T09:57:37Z</time>
      </trkpt>
      <trkpt lat="49.76792" lon="2.05659">
        <ele>123.2</ele>
        <time>2014-03-30T09:57:48Z</time>
      </trkpt>
      <trkpt lat="49.76806" lon="2.05664">
        <ele>124.9</ele>
        <time>2014-03-30T09:57:59Z</time>
      </trkpt>
      <trkpt lat="49.76821" lon="2.05659">
        <ele>123</ele>
        <time>2014-03-30T09:58:11Z</time>
      </trkpt>
      <trkpt lat="49.76835" lon="2.05657">
        <ele>128.7</ele>
        <time>2014-03-30T09:58:24Z</time>
      </trkpt>
      <trkpt lat="49.76845" lon="2.05643">
        <ele>132.4</ele>
        <time>2014-03-30T09:58:37Z</time>
      </trkpt>
      <trkpt lat="49.7686" lon="2.0564">
        <ele>135.3</ele>
        <time>2014-03-30T09:58:44Z</time>
      </trkpt>
      <trkpt lat="49.76873" lon="2.05635">
        <ele>136.2</ele>
        <time>2014-03-30T09:58:51Z</time>
      </trkpt>
      <trkpt lat="49.76887" lon="2.05628">
        <ele>137.9</ele>
        <time>2014-03-30T09:59:03Z</time>
      </trkpt>
      <trkpt lat="49.769" lon="2.0562">
        <ele>129.8</ele>
        <time>2014-03-30T09:59:15Z</time>
      </trkpt>
      <trkpt lat="49.76914" lon="2.05624">
        <ele>125</ele>
        <time>2014-03-30T09:59:32Z</time>
      </trkpt>
      <trkpt lat="49.76924" lon="2.05609">
        <ele>126.4</ele>
        <time>2014-03-30T09:59:41Z</time>
      </trkpt>
      <trkpt lat="49.76937" lon="2.05604">
        <ele>129.1</ele>
        <time>2014-03-30T09:59:51Z</time>
      </trkpt>
      <trkpt lat="49.7695" lon="2.05594">
        <ele>130</ele>
        <time>2014-03-30T10:00:03Z</time>
      </trkpt>
      <trkpt lat="49.76965" lon="2.0559">
        <ele>134</ele>
        <time>2014-03-30T10:00:13Z</time>
      </trkpt>
      <trkpt lat="49.7698" lon="2.05586">
        <ele>135</ele>
        <time>2014-03-30T10:00:23Z</time>
      </trkpt>
      <trkpt lat="49.76994" lon="2.05581">
        <ele>133</ele>
        <time>2014-03-30T10:00:37Z</time>
      </trkpt>
      <trkpt lat="49.77008" lon="2.05574">
        <ele>131.9</ele>
        <time>2014-03-30T10:00:49Z</time>
      </trkpt>
      <trkpt lat="49.77021" lon="2.0557">
        <ele>129.4</ele>
        <time>2014-03-30T10:00:58Z</time>
      </trkpt>
      <trkpt lat="49.77028" lon="2.05552">
        <ele>129.4</ele>
        <time>2014-03-30T10:01:09Z</time>
      </trkpt>
      <trkpt lat="49.77024" lon="2.05529">
        <ele>133.3</ele>
        <time>2014-03-30T10:01:19Z</time>
      </trkpt>
      <trkpt lat="49.77022" lon="2.05509">
        <ele>132</ele>
        <time>2014-03-30T10:01:30Z</time>
      </trkpt>
      <trkpt lat="49.7702" lon="2.05487">
        <ele>130.7</ele>
        <time>2014-03-30T10:01:40Z</time>
      </trkpt>
      <trkpt lat="49.77015" lon="2.05465">
        <ele>132.1</ele>
        <time>2014-03-30T10:01:51Z</time>
      </trkpt>
      <trkpt lat="49.77012" lon="2.05444">
        <ele>131.2</ele>
        <time>2014-03-30T10:01:58Z</time>
      </trkpt>
      <trkpt lat="49.77007" lon="2.05423">
        <ele>128</ele>
        <time>2014-03-30T10:02:10Z</time>
      </trkpt>
      <trkpt lat="49.77002" lon="2.05404">
        <ele>125.6</ele>
        <time>2014-03-30T10:02:23Z</time>
      </trkpt>
      <trkpt lat="49.76997" lon="2.05381">
        <ele>123.9</ele>
        <time>2014-03-30T10:02:33Z</time>
      </trkpt>
      <trkpt lat="49.76992" lon="2.05359">
        <ele>124.4</ele>
        <time>2014-03-30T10:02:42Z</time>
      </trkpt>
      <trkpt lat="49.76986" lon="2.05341">
        <ele>122.6</ele>
        <time>2014-03-30T10:02:51Z</time>
      </trkpt>
      <trkpt lat="49.76978" lon="2.05322">
        <ele>126</ele>
        <time>2014-03-30T10:03:01Z</time>
      </trkpt>
      <trkpt lat="49.76972" lon="2.05302">
        <ele>123.3</ele>
        <time>2014-03-30T10:03:15Z</time>
      </trkpt>
      <trkpt lat="49.76968" lon="2.05281">
        <ele>124.3</ele>
        <time>2014-03-30T10:03:23Z</time>
      </trkpt>
      <trkpt lat="49.76958" lon="2.05263">
        <ele>122.4</ele>
        <time>2014-03-30T10:03:34Z</time>
      </trkpt>
      <trkpt lat="49.76946" lon="2.05251">
        <ele>119.7</ele>
        <time>2014-03-30T10:03:46Z</time>
      </trkpt>
      <trkpt lat="49.76936" lon="2.05234">
        <ele>114.4</ele>
        <time>2014-03-30T10:04:00Z</time>
      </trkpt>
      <trkpt lat="49.76925" lon="2.0522">
        <ele>115.9</ele>
        <time>2014-03-30T10:04:11Z</time>
      </trkpt>
      <trkpt lat="49.76915" lon="2.05205">
        <ele>117</ele>
        <time>2014-03-30T10:04:20Z</time>
      </trkpt>
      <trkpt lat="49.76906" lon="2.05186">
        <ele>110.8</ele>
        <time>2014-03-30T10:04:33Z</time>
      </trkpt>
      <trkpt lat="49.76896" lon="2.05168">
        <ele>111.2</ele>
        <time>2014-03-30T10:04:45Z</time>
      </trkpt>
      <trkpt lat="49.76887" lon="2.05152">
        <ele>111</ele>
        <time>2014-03-30T10:04:54Z</time>
      </trkpt>
      <trkpt lat="49.76883" lon="2.05131">
        <ele>109.2</ele>
        <time>2014-03-30T10:05:03Z</time>
      </trkpt>
      <trkpt lat="49.76876" lon="2.05113">
        <ele>110.5</ele>
        <time>2014-03-30T10:05:14Z</time>
      </trkpt>
      <trkpt lat="49.76869" lon="2.05094">
        <ele>115.5</ele>
        <time>2014-03-30T10:05:24Z</time>
      </trkpt>
      <trkpt lat="49.76862" lon="2.05076">
        <ele>119.7</ele>
        <time>2014-03-30T10:05:34Z</time>
      </trkpt>
      <trkpt lat="49.76856" lon="2.05056">
        <ele>116.7</ele>
        <time>2014-03-30T10:05:43Z</time>
      </trkpt>
      <trkpt lat="49.76847" lon="2.0504">
        <ele>112.4</ele>
        <time>2014-03-30T10:05:54Z</time>
      </trkpt>
      <trkpt lat="49.76839" lon="2.05022">
        <ele>118.3</ele>
        <time>2014-03-30T10:06:04Z</time>
      </trkpt>
      <trkpt lat="49.76831" lon="2.05004">
        <ele>117.7</ele>
        <time>2014-03-30T10:06:14Z</time>
      </trkpt>
      <trkpt lat="49.76823" lon="2.04987">
        <ele>116.3</ele>
        <time>2014-03-30T10:06:22Z</time>
      </trkpt>
      <trkpt lat="49.7682" lon="2.04971">
        <ele>119</ele>
        <time>2014-03-30T10:06:30Z</time>
      </trkpt>
      <trkpt lat="49.76817" lon="2.0495">
        <ele>117.9</ele>
        <time>2014-03-30T10:06:40Z</time>
      </trkpt>
      <trkpt lat="49.76807" lon="2.04933">
        <ele>116.9</ele>
        <time>2014-03-30T10:06:50Z</time>
      </trkpt>
      <trkpt lat="49.768" lon="2.04914">
        <ele>112.9</ele>
        <time>2014-03-30T10:07:02Z</time>
      </trkpt>
      <trkpt lat="49.76792" lon="2.04896">
        <ele>109.6</ele>
        <time>2014-03-30T10:07:12Z</time>
      </trkpt>
      <trkpt lat="49.76787" lon="2.04875">
        <ele>110.2</ele>
        <time>2014-03-30T10:07:24Z</time>
      </trkpt>
      <trkpt lat="49.76779" lon="2.04855">
        <ele>104.9</ele>
        <time>2014-03-30T10:07:35Z</time>
      </trkpt>
      <trkpt lat="49.76776" lon="2.04834">
        <ele>100</ele>
        <time>2014-03-30T10:07:47Z</time>
      </trkpt>
      <trkpt lat="49.76767" lon="2.04817">
        <ele>104.3</ele>
        <time>2014-03-30T10:07:56Z</time>
      </trkpt>
      <trkpt lat="49.7676" lon="2.04798">
        <ele>111.4</ele>
        <time>2014-03-30T10:08:06Z</time>
      </trkpt>
      <trkpt lat="49.76752" lon="2.0478">
        <ele>115</ele>
        <time>2014-03-30T10:08:16Z</time>
      </trkpt>
      <trkpt lat="49.76747" lon="2.04759">
        <ele>116</ele>
        <time>2014-03-30T10:08:27Z</time>
      </trkpt>
      <trkpt lat="49.76742" lon="2.04738">
        <ele>115.8</ele>
        <time>2014-03-30T10:08:35Z</time>
      </trkpt>
      <trkpt lat="49.7674" lon="2.04717">
        <ele>115.2</ele>
        <time>2014-03-30T10:08:45Z</time>
      </trkpt>
      <trkpt lat="49.76737" lon="2.04696">
        <ele>114.4</ele>
        <time>2014-03-30T10:08:58Z</time>
      </trkpt>
      <trkpt lat="49.76738" lon="2.04673">
        <ele>114.7</ele>
        <time>2014-03-30T10:09:10Z</time>
      </trkpt>
      <trkpt lat="49.76735" lon="2.04652">
        <ele>116.1</ele>
        <time>2014-03-30T10:09:21Z</time>
      </trkpt>
      <trkpt lat="49.76729" lon="2.04632">
        <ele>117.1</ele>
        <time>2014-03-30T10:09:29Z</time>
      </trkpt>
      <trkpt lat="49.7673" lon="2.0461">
        <ele>118.9</ele>
        <time>2014-03-30T10:09:38Z</time>
      </trkpt>
      <trkpt lat="49.76724" lon="2.04588">
        <ele>122.1</ele>
        <time>2014-03-30T10:09:45Z</time>
      </trkpt>
      <trkpt lat="49.7672" lon="2.04567">
        <ele>126.9</ele>
        <time>2014-03-30T10:09:56Z</time>
      </trkpt>
      <trkpt lat="49.76716" lon="2.04544">
        <ele>130</ele>
        <time>2014-03-30T10:10:06Z</time>
      </trkpt>
      <trkpt lat="49.76712" lon="2.04525">
        <ele>132</ele>
        <time>2014-03-30T10:10:13Z</time>
      </trkpt>
      <trkpt lat="49.76714" lon="2.04504">
        <ele>127.8</ele>
        <time>2014-03-30T10:10:23Z</time>
      </trkpt>
      <trkpt lat="49.76716" lon="2.04483">
        <ele>127</ele>
        <time>2014-03-30T10:10:37Z</time>
      </trkpt>
      <trkpt lat="49.76724" lon="2.04465">
        <ele>128</ele>
        <time>2014-03-30T10:10:52Z</time>
      </trkpt>
      <trkpt lat="49.76736" lon="2.04455">
        <ele>129</ele>
        <time>2014-03-30T10:11:15Z</time>
      </trkpt>
    </trkseg>
  </trk>
</gpx>